<?xml version="1.0" encoding="UTF-8" standalone="no" ?><gpx xmlns="http://www.topografix.com/GPX/1/1" xmlns:gpxx="http://www.garmin.com/xmlschemas/GpxExtensions/v3" xmlns:wptx1="http://www.garmin.com/xmlschemas/WaypointExtension/v1" xmlns:gpxtpx="http://www.garmin.com/xmlschemas/TrackPointExtension/v1" creator="GuideVTT.com" version="1.1" xmlns:xsi="http://www.w3.org/2001/XMLSchema-instance" xsi:schemaLocation="http://www.topografix.com/GPX/1/1 http://www.topografix.com/GPX/1/1/gpx.xsd http://www.garmin.com/xmlschemas/GpxExtensions/v3 http://www8.garmin.com/xmlschemas/GpxExtensionsv3.xsd http://www.garmin.com/xmlschemas/WaypointExtension/v1 http://www8.garmin.com/xmlschemas/WaypointExtensionv1.xsd http://www.garmin.com/xmlschemas/TrackPointExtension/v1 http://www.garmin.com/xmlschemas/TrackPointExtensionv1.xsd">
<metadata><link href="http://www.garmin.com"><text>Garmin International</text></link><time>2013-06-22T15:13:50Z</time></metadata>
<trk><name>muguet.gpx</name><extensions><gpxx:TrackExtension><gpxx:DisplayColor>Cyan</gpxx:DisplayColor></gpxx:TrackExtension></extensions><trkseg>
<trkpt lat="49.04243926" lon="-1.09674504"><ele>107.3243407992</ele><time>2007-05-01T09:07:59Z</time></trkpt>
<trkpt lat="49.04241253" lon="-1.09678393"><ele>107.3243407992</ele><time>2007-05-01T09:08:00Z</time></trkpt>
<trkpt lat="49.04238713" lon="-1.09682383"><ele>107.3243407992</ele><time>2007-05-01T09:08:01Z</time></trkpt>
<trkpt lat="49.04215110" lon="-1.09724619"><ele>107.3243407992</ele><time>2007-05-01T09:08:10Z</time></trkpt>
<trkpt lat="49.04192688" lon="-1.09772815"><ele>108.2856446424</ele><time>2007-05-01T09:08:20Z</time></trkpt>
<trkpt lat="49.04172898" lon="-1.09808715"><ele>108.2856446424</ele><time>2007-05-01T09:08:28Z</time></trkpt>
<trkpt lat="49.04160937" lon="-1.09830449"><ele>109.7276610624</ele><time>2007-05-01T09:08:33Z</time></trkpt>
<trkpt lat="49.04158255" lon="-1.09835386"><ele>109.2469481808</ele><time>2007-05-01T09:08:34Z</time></trkpt>
<trkpt lat="49.04144475" lon="-1.09862845"><ele>108.7662352992</ele><time>2007-05-01T09:08:40Z</time></trkpt>
<trkpt lat="49.04125440" lon="-1.09903498"><ele>107.3243407992</ele><time>2007-05-01T09:08:49Z</time></trkpt>
<trkpt lat="49.04110202" lon="-1.09936522"><ele>107.8050536808</ele><time>2007-05-01T09:08:57Z</time></trkpt>
<trkpt lat="49.04102767" lon="-1.09952222"><ele>107.8050536808</ele><time>2007-05-01T09:09:01Z</time></trkpt>
<trkpt lat="49.04101132" lon="-1.09956455"><ele>107.8050536808</ele><time>2007-05-01T09:09:02Z</time></trkpt>
<trkpt lat="49.04083338" lon="-1.10000895"><ele>108.7662352992</ele><time>2007-05-01T09:09:12Z</time></trkpt>
<trkpt lat="49.04070362" lon="-1.10039955"><ele>109.2469481808</ele><time>2007-05-01T09:09:20Z</time></trkpt>
<trkpt lat="49.04059324" lon="-1.10082787"><ele>109.7276610624</ele><time>2007-05-01T09:09:29Z</time></trkpt>
<trkpt lat="49.04046726" lon="-1.10132575"><ele>111.1695555624</ele><time>2007-05-01T09:09:39Z</time></trkpt>
<trkpt lat="49.04033390" lon="-1.10184585"><ele>112.6115722872</ele><time>2007-05-01T09:09:49Z</time></trkpt>
<trkpt lat="49.04021949" lon="-1.10223326"><ele>114.053589012</ele><time>2007-05-01T09:09:56Z</time></trkpt>
<trkpt lat="49.04008454" lon="-1.10265277"><ele>115.0148925504</ele><time>2007-05-01T09:10:04Z</time></trkpt>
<trkpt lat="49.03995386" lon="-1.10315728"><ele>116.4567870504</ele><time>2007-05-01T09:10:13Z</time></trkpt>
<trkpt lat="49.03986552" lon="-1.10369783"><ele>117.4182128136</ele><time>2007-05-01T09:10:22Z</time></trkpt>
<trkpt lat="49.03985563" lon="-1.10382264"><ele>117.4182128136</ele><time>2007-05-01T09:10:24Z</time></trkpt>
<trkpt lat="49.03985278" lon="-1.10388500"><ele>117.8988037752</ele><time>2007-05-01T09:10:25Z</time></trkpt>
<trkpt lat="49.03985588" lon="-1.10424500"><ele>118.8601073136</ele><time>2007-05-01T09:10:32Z</time></trkpt>
<trkpt lat="49.03985512" lon="-1.10444985"><ele>120.3021240384</ele><time>2007-05-01T09:10:38Z</time></trkpt>
<trkpt lat="49.03983199" lon="-1.10464046"><ele>121.2635498016</ele><time>2007-05-01T09:10:43Z</time></trkpt>
<trkpt lat="49.03982998" lon="-1.10473417"><ele>121.2635498016</ele><time>2007-05-01T09:10:45Z</time></trkpt>
<trkpt lat="49.03982855" lon="-1.10478270"><ele>121.7441407632</ele><time>2007-05-01T09:10:46Z</time></trkpt>
<trkpt lat="49.03979586" lon="-1.10525728"><ele>124.1473388016</ele><time>2007-05-01T09:10:55Z</time></trkpt>
<trkpt lat="49.03976435" lon="-1.10544764"><ele>124.6280516832</ele><time>2007-05-01T09:10:59Z</time></trkpt>
<trkpt lat="49.03984800" lon="-1.10556808"><ele>124.1473388016</ele><time>2007-05-01T09:11:03Z</time></trkpt>
<trkpt lat="49.03992629" lon="-1.10556322"><ele>123.6667481448</ele><time>2007-05-01T09:11:05Z</time></trkpt>
<trkpt lat="49.04021613" lon="-1.10550086"><ele>122.7054443016</ele><time>2007-05-01T09:11:12Z</time></trkpt>
<trkpt lat="49.04048888" lon="-1.10544873"><ele>119.8214111568</ele><time>2007-05-01T09:11:18Z</time></trkpt>
<trkpt lat="49.04054915" lon="-1.10543347"><ele>118.8601073136</ele><time>2007-05-01T09:11:19Z</time></trkpt>
<trkpt lat="49.04089733" lon="-1.10534504"><ele>115.495605432</ele><time>2007-05-01T09:11:24Z</time></trkpt>
<trkpt lat="49.04144224" lon="-1.10524806"><ele>113.5729980504</ele><time>2007-05-01T09:11:31Z</time></trkpt>
<trkpt lat="49.04198723" lon="-1.10522032"><ele>109.7276610624</ele><time>2007-05-01T09:11:38Z</time></trkpt>
<trkpt lat="49.04253138" lon="-1.10526810"><ele>106.3630372608</ele><time>2007-05-01T09:11:46Z</time></trkpt>
<trkpt lat="49.04271595" lon="-1.10509308"><ele>105.4017334176</ele><time>2007-05-01T09:11:50Z</time></trkpt>
<trkpt lat="49.04272132" lon="-1.10500532"><ele>105.8824462992</ele><time>2007-05-01T09:11:51Z</time></trkpt>
<trkpt lat="49.04269064" lon="-1.10449738"><ele>107.8050536808</ele><time>2007-05-01T09:11:57Z</time></trkpt>
<trkpt lat="49.04263959" lon="-1.10427308"><ele>108.7662352992</ele><time>2007-05-01T09:12:00Z</time></trkpt>
<trkpt lat="49.04256189" lon="-1.10407678"><ele>110.208252024</ele><time>2007-05-01T09:12:03Z</time></trkpt>
<trkpt lat="49.04253499" lon="-1.10401374"><ele>110.208252024</ele><time>2007-05-01T09:12:04Z</time></trkpt>
<trkpt lat="49.04250850" lon="-1.10395088"><ele>110.6888426808</ele><time>2007-05-01T09:12:05Z</time></trkpt>
<trkpt lat="49.04235008" lon="-1.10358409"><ele>112.1309813256</ele><time>2007-05-01T09:12:11Z</time></trkpt>
<trkpt lat="49.04213752" lon="-1.10308696"><ele>113.5729980504</ele><time>2007-05-01T09:12:20Z</time></trkpt>
<trkpt lat="49.04198186" lon="-1.10286375"><ele>113.5729980504</ele><time>2007-05-01T09:12:27Z</time></trkpt>
<trkpt lat="49.04185278" lon="-1.10268094"><ele>114.053589012</ele><time>2007-05-01T09:12:32Z</time></trkpt>
<trkpt lat="49.04168406" lon="-1.10245027"><ele>115.9761963936</ele><time>2007-05-01T09:12:38Z</time></trkpt>
<trkpt lat="49.04154617" lon="-1.10226494"><ele>116.937499932</ele><time>2007-05-01T09:12:43Z</time></trkpt>
<trkpt lat="49.04145439" lon="-1.10212547"><ele>117.4182128136</ele><time>2007-05-01T09:12:47Z</time></trkpt>
<trkpt lat="49.04151499" lon="-1.10196294"><ele>118.379394432</ele><time>2007-05-01T09:12:51Z</time></trkpt>
<trkpt lat="49.04163620" lon="-1.10178164"><ele>118.379394432</ele><time>2007-05-01T09:12:56Z</time></trkpt>
<trkpt lat="49.04171046" lon="-1.10164736"><ele>119.3408201952</ele><time>2007-05-01T09:13:01Z</time></trkpt>
<trkpt lat="49.04172244" lon="-1.10162557"><ele>119.8214111568</ele><time>2007-05-01T09:13:02Z</time></trkpt>
<trkpt lat="49.04173896" lon="-1.10158098"><ele>119.8214111568</ele><time>2007-05-01T09:13:06Z</time></trkpt>
<trkpt lat="49.04183845" lon="-1.10135676"><ele>119.8214111568</ele><time>2007-05-01T09:13:13Z</time></trkpt>
<trkpt lat="49.04197063" lon="-1.10098830"><ele>118.8601073136</ele><time>2007-05-01T09:13:20Z</time></trkpt>
<trkpt lat="49.04204188" lon="-1.10079736"><ele>119.3408201952</ele><time>2007-05-01T09:13:23Z</time></trkpt>
<trkpt lat="49.04218915" lon="-1.10061262"><ele>118.8601073136</ele><time>2007-05-01T09:13:27Z</time></trkpt>
<trkpt lat="49.04261604" lon="-1.10032026"><ele>118.379394432</ele><time>2007-05-01T09:13:37Z</time></trkpt>
<trkpt lat="49.04293614" lon="-1.10008925"><ele>116.937499932</ele><time>2007-05-01T09:13:45Z</time></trkpt>
<trkpt lat="49.04325675" lon="-1.09988708"><ele>116.937499932</ele><time>2007-05-01T09:13:53Z</time></trkpt>
<trkpt lat="49.04351609" lon="-1.09970033"><ele>116.937499932</ele><time>2007-05-01T09:14:00Z</time></trkpt>
<trkpt lat="49.04381356" lon="-1.09951467"><ele>116.937499932</ele><time>2007-05-01T09:14:07Z</time></trkpt>
<trkpt lat="49.04385237" lon="-1.09949196"><ele>116.937499932</ele><time>2007-05-01T09:14:08Z</time></trkpt>
<trkpt lat="49.04395899" lon="-1.09940403"><ele>117.4182128136</ele><time>2007-05-01T09:14:11Z</time></trkpt>
<trkpt lat="49.04416476" lon="-1.09923396"><ele>117.4182128136</ele><time>2007-05-01T09:14:16Z</time></trkpt>
<trkpt lat="49.04441480" lon="-1.09903338"><ele>117.8988037752</ele><time>2007-05-01T09:14:22Z</time></trkpt>
<trkpt lat="49.04445796" lon="-1.09900304"><ele>117.4182128136</ele><time>2007-05-01T09:14:23Z</time></trkpt>
<trkpt lat="49.04463733" lon="-1.09894973"><ele>117.4182128136</ele><time>2007-05-01T09:14:27Z</time></trkpt>
<trkpt lat="49.04496859" lon="-1.09884462"><ele>117.8988037752</ele><time>2007-05-01T09:14:35Z</time></trkpt>
<trkpt lat="49.04525726" lon="-1.09862007"><ele>118.379394432</ele><time>2007-05-01T09:14:43Z</time></trkpt>
<trkpt lat="49.04540839" lon="-1.09850666"><ele>119.8214111568</ele><time>2007-05-01T09:14:47Z</time></trkpt>
<trkpt lat="49.04567200" lon="-1.09826166"><ele>118.379394432</ele><time>2007-05-01T09:14:54Z</time></trkpt>
<trkpt lat="49.04606729" lon="-1.09791080"><ele>118.8601073136</ele><time>2007-05-01T09:15:04Z</time></trkpt>
<trkpt lat="49.04637138" lon="-1.09766185"><ele>118.8601073136</ele><time>2007-05-01T09:15:11Z</time></trkpt>
<trkpt lat="49.04672477" lon="-1.09739464"><ele>118.8601073136</ele><time>2007-05-01T09:15:18Z</time></trkpt>
<trkpt lat="49.04677707" lon="-1.09734418"><ele>118.379394432</ele><time>2007-05-01T09:15:19Z</time></trkpt>
<trkpt lat="49.04720404" lon="-1.09683556"><ele>117.4182128136</ele><time>2007-05-01T09:15:27Z</time></trkpt>
<trkpt lat="49.04769832" lon="-1.09630256"><ele>118.8601073136</ele><time>2007-05-01T09:15:36Z</time></trkpt>
<trkpt lat="49.04802815" lon="-1.09602017"><ele>118.379394432</ele><time>2007-05-01T09:15:42Z</time></trkpt>
<trkpt lat="49.04830182" lon="-1.09580300"><ele>117.8988037752</ele><time>2007-05-01T09:15:47Z</time></trkpt>
<trkpt lat="49.04870147" lon="-1.09551877"><ele>117.4182128136</ele><time>2007-05-01T09:15:54Z</time></trkpt>
<trkpt lat="49.04909818" lon="-1.09524694"><ele>116.4567870504</ele><time>2007-05-01T09:16:01Z</time></trkpt>
<trkpt lat="49.04938753" lon="-1.09510034"><ele>115.495605432</ele><time>2007-05-01T09:16:06Z</time></trkpt>
<trkpt lat="49.04980763" lon="-1.09494478"><ele>112.1309813256</ele><time>2007-05-01T09:16:13Z</time></trkpt>
<trkpt lat="49.05017903" lon="-1.09475727"><ele>107.8050536808</ele><time>2007-05-01T09:16:19Z</time></trkpt>
<trkpt lat="49.05029839" lon="-1.09466272"><ele>107.3243407992</ele><time>2007-05-01T09:16:22Z</time></trkpt>
<trkpt lat="49.05043032" lon="-1.09453180"><ele>105.8824462992</ele><time>2007-05-01T09:16:27Z</time></trkpt>
<trkpt lat="49.05064490" lon="-1.09434178"><ele>103.9597166928</ele><time>2007-05-01T09:16:31Z</time></trkpt>
<trkpt lat="49.05104916" lon="-1.09405244"><ele>99.633789048</ele><time>2007-05-01T09:16:37Z</time></trkpt>
<trkpt lat="49.05111822" lon="-1.09400248"><ele>98.6724852048</ele><time>2007-05-01T09:16:38Z</time></trkpt>
<trkpt lat="49.05153229" lon="-1.09388723"><ele>94.34655756</ele><time>2007-05-01T09:16:43Z</time></trkpt>
<trkpt lat="49.05162047" lon="-1.09387248"><ele>93.8658446784</ele><time>2007-05-01T09:16:44Z</time></trkpt>
<trkpt lat="49.05192347" lon="-1.09367844"><ele>91.4625244152</ele><time>2007-05-01T09:16:48Z</time></trkpt>
<trkpt lat="49.05247333" lon="-1.09317594"><ele>88.5787354152</ele><time>2007-05-01T09:16:56Z</time></trkpt>
<trkpt lat="49.05278798" lon="-1.09288869"><ele>86.6560058088</ele><time>2007-05-01T09:17:01Z</time></trkpt>
<trkpt lat="49.05284565" lon="-1.09283312"><ele>86.1752929272</ele><time>2007-05-01T09:17:02Z</time></trkpt>
<trkpt lat="49.05330406" lon="-1.09248234"><ele>83.2913817024</ele><time>2007-05-01T09:17:09Z</time></trkpt>
<trkpt lat="49.05367529" lon="-1.09216827"><ele>81.8493652824</ele><time>2007-05-01T09:17:15Z</time></trkpt>
<trkpt lat="49.05409749" lon="-1.09179117"><ele>78.9654540576</ele><time>2007-05-01T09:17:21Z</time></trkpt>
<trkpt lat="49.05423176" lon="-1.09165915"><ele>78.0040282944</ele><time>2007-05-01T09:17:23Z</time></trkpt>
<trkpt lat="49.05465119" lon="-1.09120762"><ele>73.6782225696</ele><time>2007-05-01T09:17:30Z</time></trkpt>
<trkpt lat="49.05476234" lon="-1.09108156"><ele>73.1976319128</ele><time>2007-05-01T09:17:32Z</time></trkpt>
<trkpt lat="49.05501279" lon="-1.09085692"><ele>71.2749023064</ele><time>2007-05-01T09:17:37Z</time></trkpt>
<trkpt lat="49.05523399" lon="-1.09068350"><ele>69.3522949248</ele><time>2007-05-01T09:17:41Z</time></trkpt>
<trkpt lat="49.05545577" lon="-1.09032207"><ele>65.5070801616</ele><time>2007-05-01T09:17:46Z</time></trkpt>
<trkpt lat="49.05563422" lon="-1.09000515"><ele>62.622924792</ele><time>2007-05-01T09:17:51Z</time></trkpt>
<trkpt lat="49.05567194" lon="-1.08994564"><ele>61.6617431736</ele><time>2007-05-01T09:17:52Z</time></trkpt>
<trkpt lat="49.05596330" lon="-1.08938590"><ele>59.2584229104</ele><time>2007-05-01T09:17:59Z</time></trkpt>
<trkpt lat="49.05622389" lon="-1.08894685"><ele>58.7777100288</ele><time>2007-05-01T09:18:05Z</time></trkpt>
<trkpt lat="49.05634442" lon="-1.08872213"><ele>58.7777100288</ele><time>2007-05-01T09:18:08Z</time></trkpt>
<trkpt lat="49.05654517" lon="-1.08822668"><ele>59.2584229104</ele><time>2007-05-01T09:18:14Z</time></trkpt>
<trkpt lat="49.05670292" lon="-1.08804563"><ele>58.7777100288</ele><time>2007-05-01T09:18:18Z</time></trkpt>
<trkpt lat="49.05675933" lon="-1.08805116"><ele>58.7777100288</ele><time>2007-05-01T09:18:19Z</time></trkpt>
<trkpt lat="49.05687165" lon="-1.08806474"><ele>59.2584229104</ele><time>2007-05-01T09:18:21Z</time></trkpt>
<trkpt lat="49.05702973" lon="-1.08810967"><ele>59.2584229104</ele><time>2007-05-01T09:18:24Z</time></trkpt>
<trkpt lat="49.05720768" lon="-1.08829306"><ele>59.2584229104</ele><time>2007-05-01T09:18:29Z</time></trkpt>
<trkpt lat="49.05731647" lon="-1.08837797"><ele>61.6617431736</ele><time>2007-05-01T09:18:33Z</time></trkpt>
<trkpt lat="49.05741437" lon="-1.08844109"><ele>62.622924792</ele><time>2007-05-01T09:18:37Z</time></trkpt>
<trkpt lat="49.05754832" lon="-1.08850320"><ele>63.1036376736</ele><time>2007-05-01T09:18:42Z</time></trkpt>
<trkpt lat="49.05765602" lon="-1.08852357"><ele>64.0650634368</ele><time>2007-05-01T09:18:46Z</time></trkpt>
<trkpt lat="49.05774152" lon="-1.08853798"><ele>64.5456543984</ele><time>2007-05-01T09:18:49Z</time></trkpt>
<trkpt lat="49.05787127" lon="-1.08856128"><ele>66.9489746616</ele><time>2007-05-01T09:18:53Z</time></trkpt>
<trkpt lat="49.05805064" lon="-1.08857864"><ele>71.755493268</ele><time>2007-05-01T09:18:58Z</time></trkpt>
<trkpt lat="49.05825918" lon="-1.08857478"><ele>75.1202392944</ele><time>2007-05-01T09:19:06Z</time></trkpt>
<trkpt lat="49.05842707" lon="-1.08854025"><ele>77.042846676</ele><time>2007-05-01T09:19:12Z</time></trkpt>
<trkpt lat="49.05864618" lon="-1.08849222"><ele>78.484741176</ele><time>2007-05-01T09:19:20Z</time></trkpt>
<trkpt lat="49.05885078" lon="-1.08845970"><ele>78.9654540576</ele><time>2007-05-01T09:19:27Z</time></trkpt>
<trkpt lat="49.05903602" lon="-1.08843246"><ele>80.888183664</ele><time>2007-05-01T09:19:33Z</time></trkpt>
<trkpt lat="49.05928052" lon="-1.08843086"><ele>80.4074707824</ele><time>2007-05-01T09:19:40Z</time></trkpt>
<trkpt lat="49.05954673" lon="-1.08844260"><ele>80.888183664</ele><time>2007-05-01T09:19:47Z</time></trkpt>
<trkpt lat="49.05982149" lon="-1.08848560"><ele>81.3687743208</ele><time>2007-05-01T09:19:53Z</time></trkpt>
<trkpt lat="49.06018149" lon="-1.08854276"><ele>80.888183664</ele><time>2007-05-01T09:20:01Z</time></trkpt>
<trkpt lat="49.06022298" lon="-1.08855106"><ele>81.3687743208</ele><time>2007-05-01T09:20:02Z</time></trkpt>
<trkpt lat="49.06040613" lon="-1.08856472"><ele>80.888183664</ele><time>2007-05-01T09:20:07Z</time></trkpt>
<trkpt lat="49.06067275" lon="-1.08848836"><ele>81.3687743208</ele><time>2007-05-01T09:20:14Z</time></trkpt>
<trkpt lat="49.06083394" lon="-1.08840345"><ele>81.3687743208</ele><time>2007-05-01T09:20:19Z</time></trkpt>
<trkpt lat="49.06112915" lon="-1.08829223"><ele>82.8107910456</ele><time>2007-05-01T09:20:27Z</time></trkpt>
<trkpt lat="49.06141237" lon="-1.08830866"><ele>84.2526855456</ele><time>2007-05-01T09:20:34Z</time></trkpt>
<trkpt lat="49.06149988" lon="-1.08831435"><ele>84.7333984272</ele><time>2007-05-01T09:20:36Z</time></trkpt>
<trkpt lat="49.06161170" lon="-1.08833523"><ele>83.771972664</ele><time>2007-05-01T09:20:39Z</time></trkpt>
<trkpt lat="49.06189844" lon="-1.08827052"><ele>83.771972664</ele><time>2007-05-01T09:20:46Z</time></trkpt>
<trkpt lat="49.06210187" lon="-1.08806717"><ele>83.2913817024</ele><time>2007-05-01T09:20:53Z</time></trkpt>
<trkpt lat="49.06229339" lon="-1.08784338"><ele>83.771972664</ele><time>2007-05-01T09:20:59Z</time></trkpt>
<trkpt lat="49.06238266" lon="-1.08770214"><ele>84.7333984272</ele><time>2007-05-01T09:21:03Z</time></trkpt>
<trkpt lat="49.06249582" lon="-1.08752344"><ele>84.7333984272</ele><time>2007-05-01T09:21:08Z</time></trkpt>
<trkpt lat="49.06265776" lon="-1.08732495"><ele>85.6945800456</ele><time>2007-05-01T09:21:14Z</time></trkpt>
<trkpt lat="49.06283160" lon="-1.08712689"><ele>85.2139893888</ele><time>2007-05-01T09:21:21Z</time></trkpt>
<trkpt lat="49.06302690" lon="-1.08687778"><ele>87.6171874272</ele><time>2007-05-01T09:21:28Z</time></trkpt>
<trkpt lat="49.06317458" lon="-1.08667796"><ele>87.6171874272</ele><time>2007-05-01T09:21:34Z</time></trkpt>
<trkpt lat="49.06332957" lon="-1.08647143"><ele>90.0206299152</ele><time>2007-05-01T09:21:40Z</time></trkpt>
<trkpt lat="49.06355655" lon="-1.08614872"><ele>93.8658446784</ele><time>2007-05-01T09:21:48Z</time></trkpt>
<trkpt lat="49.06379359" lon="-1.08578964"><ele>97.2304687848</ele><time>2007-05-01T09:21:57Z</time></trkpt>
<trkpt lat="49.06389124" lon="-1.08559703"><ele>96.2692871664</ele><time>2007-05-01T09:22:02Z</time></trkpt>
<trkpt lat="49.06400506" lon="-1.08531363"><ele>96.2692871664</ele><time>2007-05-01T09:22:08Z</time></trkpt>
<trkpt lat="49.06416826" lon="-1.08489278"><ele>96.2692871664</ele><time>2007-05-01T09:22:17Z</time></trkpt>
<trkpt lat="49.06429667" lon="-1.08451182"><ele>96.7498778232</ele><time>2007-05-01T09:22:25Z</time></trkpt>
<trkpt lat="49.06444478" lon="-1.08410773"><ele>97.2304687848</ele><time>2007-05-01T09:22:33Z</time></trkpt>
<trkpt lat="49.06455835" lon="-1.08383440"><ele>97.7111816664</ele><time>2007-05-01T09:22:38Z</time></trkpt>
<trkpt lat="49.06467738" lon="-1.08352108"><ele>97.2304687848</ele><time>2007-05-01T09:22:44Z</time></trkpt>
<trkpt lat="49.06476899" lon="-1.08324196"><ele>96.2692871664</ele><time>2007-05-01T09:22:49Z</time></trkpt>
<trkpt lat="49.06480084" lon="-1.08309830"><ele>96.2692871664</ele><time>2007-05-01T09:23:02Z</time></trkpt>
<trkpt lat="49.06480595" lon="-1.08307860"><ele>96.2692871664</ele><time>2007-05-01T09:23:03Z</time></trkpt>
<trkpt lat="49.06482557" lon="-1.08301288"><ele>96.7498778232</ele><time>2007-05-01T09:23:10Z</time></trkpt>
<trkpt lat="49.06485600" lon="-1.08292630"><ele>95.78845206</ele><time>2007-05-01T09:23:14Z</time></trkpt>
<trkpt lat="49.06490813" lon="-1.08274768"><ele>92.90454114</ele><time>2007-05-01T09:23:34Z</time></trkpt>
<trkpt lat="49.06489715" lon="-1.08270879"><ele>92.90454114</ele><time>2007-05-01T09:23:35Z</time></trkpt>
<trkpt lat="49.06483085" lon="-1.08264090"><ele>93.3851317968</ele><time>2007-05-01T09:23:41Z</time></trkpt>
<trkpt lat="49.06481375" lon="-1.08260552"><ele>93.8658446784</ele><time>2007-05-01T09:23:43Z</time></trkpt>
<trkpt lat="49.06470143" lon="-1.08249656"><ele>94.8271485216</ele><time>2007-05-01T09:23:50Z</time></trkpt>
<trkpt lat="49.06463806" lon="-1.08242079"><ele>95.3077391784</ele><time>2007-05-01T09:23:53Z</time></trkpt>
<trkpt lat="49.06448048" lon="-1.08227192"><ele>93.3851317968</ele><time>2007-05-01T09:24:00Z</time></trkpt>
<trkpt lat="49.06435375" lon="-1.08215357"><ele>92.90454114</ele><time>2007-05-01T09:24:05Z</time></trkpt>
<trkpt lat="49.06417714" lon="-1.08196942"><ele>92.90454114</ele><time>2007-05-01T09:24:11Z</time></trkpt>
<trkpt lat="49.06394589" lon="-1.08176608"><ele>92.90454114</ele><time>2007-05-01T09:24:18Z</time></trkpt>
<trkpt lat="49.06360885" lon="-1.08151546"><ele>93.8658446784</ele><time>2007-05-01T09:24:27Z</time></trkpt>
<trkpt lat="49.06328196" lon="-1.08128454"><ele>93.3851317968</ele><time>2007-05-01T09:24:34Z</time></trkpt>
<trkpt lat="49.06283286" lon="-1.08097759"><ele>91.9432372968</ele><time>2007-05-01T09:24:42Z</time></trkpt>
<trkpt lat="49.06242675" lon="-1.08071398"><ele>89.5399170336</ele><time>2007-05-01T09:24:48Z</time></trkpt>
<trkpt lat="49.06185393" lon="-1.08035498"><ele>86.1752929272</ele><time>2007-05-01T09:24:56Z</time></trkpt>
<trkpt lat="49.06157657" lon="-1.08020637"><ele>85.2139893888</ele><time>2007-05-01T09:25:01Z</time></trkpt>
<trkpt lat="49.06124516" lon="-1.07999004"><ele>83.2913817024</ele><time>2007-05-01T09:25:06Z</time></trkpt>
<trkpt lat="49.06070243" lon="-1.07962165"><ele>79.4460450192</ele><time>2007-05-01T09:25:13Z</time></trkpt>
<trkpt lat="49.05993615" lon="-1.07909066"><ele>76.0814209128</ele><time>2007-05-01T09:25:22Z</time></trkpt>
<trkpt lat="49.05940524" lon="-1.07877374"><ele>71.755493268</ele><time>2007-05-01T09:25:28Z</time></trkpt>
<trkpt lat="49.05903988" lon="-1.07865027"><ele>68.8715820432</ele><time>2007-05-01T09:25:32Z</time></trkpt>
<trkpt lat="49.05855289" lon="-1.07857433"><ele>64.5456543984</ele><time>2007-05-01T09:25:37Z</time></trkpt>
<trkpt lat="49.05793414" lon="-1.07816638"><ele>56.8551026472</ele><time>2007-05-01T09:25:43Z</time></trkpt>
<trkpt lat="49.05705010" lon="-1.07753145"><ele>46.761230328</ele><time>2007-05-01T09:25:51Z</time></trkpt>
<trkpt lat="49.05667953" lon="-1.07758393"><ele>42.9160155648</ele><time>2007-05-01T09:25:54Z</time></trkpt>
<trkpt lat="49.05656043" lon="-1.07762977"><ele>42.9160155648</ele><time>2007-05-01T09:25:55Z</time></trkpt>
<trkpt lat="49.05625356" lon="-1.07767336"><ele>40.9934081832</ele><time>2007-05-01T09:25:59Z</time></trkpt>
<trkpt lat="49.05622029" lon="-1.07749768"><ele>39.5512695384</ele><time>2007-05-01T09:26:02Z</time></trkpt>
<trkpt lat="49.05624518" lon="-1.07741646"><ele>39.0706785768</ele><time>2007-05-01T09:26:03Z</time></trkpt>
<trkpt lat="49.05634266" lon="-1.07706576"><ele>39.5512695384</ele><time>2007-05-01T09:26:08Z</time></trkpt>
<trkpt lat="49.05634979" lon="-1.07688353"><ele>41.9547120264</ele><time>2007-05-01T09:26:12Z</time></trkpt>
<trkpt lat="49.05632313" lon="-1.07684523"><ele>45.319213908</ele><time>2007-05-01T09:26:19Z</time></trkpt>
<trkpt lat="49.05626530" lon="-1.07677767"><ele>47.7225341712</ele><time>2007-05-01T09:26:25Z</time></trkpt>
<trkpt lat="49.05616882" lon="-1.07663803"><ele>47.7225341712</ele><time>2007-05-01T09:26:30Z</time></trkpt>
<trkpt lat="49.05602373" lon="-1.07636872"><ele>45.319213908</ele><time>2007-05-01T09:26:35Z</time></trkpt>
<trkpt lat="49.05575870" lon="-1.07596706"><ele>41.4739991448</ele><time>2007-05-01T09:26:42Z</time></trkpt>
<trkpt lat="49.05572567" lon="-1.07591492"><ele>41.4739991448</ele><time>2007-05-01T09:26:43Z</time></trkpt>
<trkpt lat="49.05551713" lon="-1.07555123"><ele>40.9934081832</ele><time>2007-05-01T09:26:50Z</time></trkpt>
<trkpt lat="49.05545854" lon="-1.07540497"><ele>41.9547120264</ele><time>2007-05-01T09:26:53Z</time></trkpt>
<trkpt lat="49.05545184" lon="-1.07515812"><ele>42.9160155648</ele><time>2007-05-01T09:26:58Z</time></trkpt>
<trkpt lat="49.05552945" lon="-1.07492670"><ele>42.435424908</ele><time>2007-05-01T09:27:02Z</time></trkpt>
<trkpt lat="49.05567010" lon="-1.07460173"><ele>42.435424908</ele><time>2007-05-01T09:27:06Z</time></trkpt>
<trkpt lat="49.05569675" lon="-1.07452487"><ele>42.435424908</ele><time>2007-05-01T09:27:07Z</time></trkpt>
<trkpt lat="49.05569198" lon="-1.07419068"><ele>44.8386229464</ele><time>2007-05-01T09:27:12Z</time></trkpt>
<trkpt lat="49.05559969" lon="-1.07406286"><ele>46.2806396712</ele><time>2007-05-01T09:27:15Z</time></trkpt>
<trkpt lat="49.05544857" lon="-1.07386119"><ele>50.1259766592</ele><time>2007-05-01T09:27:22Z</time></trkpt>
<trkpt lat="49.05530943" lon="-1.07372968"><ele>54.4517820792</ele><time>2007-05-01T09:27:28Z</time></trkpt>
<trkpt lat="49.05513953" lon="-1.07362783"><ele>57.8165284104</ele><time>2007-05-01T09:27:34Z</time></trkpt>
<trkpt lat="49.05498848" lon="-1.07354963"><ele>59.2584229104</ele><time>2007-05-01T09:27:39Z</time></trkpt>
<trkpt lat="49.05483015" lon="-1.07346707"><ele>60.2197264488</ele><time>2007-05-01T09:27:45Z</time></trkpt>
<trkpt lat="49.05469897" lon="-1.07338962"><ele>60.7003174104</ele><time>2007-05-01T09:27:50Z</time></trkpt>
<trkpt lat="49.05453645" lon="-1.07328619"><ele>61.181030292</ele><time>2007-05-01T09:27:56Z</time></trkpt>
<trkpt lat="49.05435858" lon="-1.07315107"><ele>60.7003174104</ele><time>2007-05-01T09:28:02Z</time></trkpt>
<trkpt lat="49.05420167" lon="-1.07303993"><ele>60.7003174104</ele><time>2007-05-01T09:28:07Z</time></trkpt>
<trkpt lat="49.05402507" lon="-1.07286064"><ele>62.622924792</ele><time>2007-05-01T09:28:12Z</time></trkpt>
<trkpt lat="49.05385726" lon="-1.07273575"><ele>62.622924792</ele><time>2007-05-01T09:28:17Z</time></trkpt>
<trkpt lat="49.05362165" lon="-1.07254816"><ele>62.622924792</ele><time>2007-05-01T09:28:24Z</time></trkpt>
<trkpt lat="49.05329995" lon="-1.07228958"><ele>63.5843505552</ele><time>2007-05-01T09:28:34Z</time></trkpt>
<trkpt lat="49.05303407" lon="-1.07207383"><ele>62.622924792</ele><time>2007-05-01T09:28:42Z</time></trkpt>
<trkpt lat="49.05279469" lon="-1.07186638"><ele>63.1036376736</ele><time>2007-05-01T09:28:49Z</time></trkpt>
<trkpt lat="49.05258464" lon="-1.07167502"><ele>62.622924792</ele><time>2007-05-01T09:28:56Z</time></trkpt>
<trkpt lat="49.05249093" lon="-1.07158349"><ele>62.1423341352</ele><time>2007-05-01T09:28:59Z</time></trkpt>
<trkpt lat="49.05250057" lon="-1.07137763"><ele>62.1423341352</ele><time>2007-05-01T09:29:03Z</time></trkpt>
<trkpt lat="49.05264666" lon="-1.07099005"><ele>61.6617431736</ele><time>2007-05-01T09:29:10Z</time></trkpt>
<trkpt lat="49.05285009" lon="-1.07042008"><ele>61.181030292</ele><time>2007-05-01T09:29:19Z</time></trkpt>
<trkpt lat="49.05301672" lon="-1.06996570"><ele>61.181030292</ele><time>2007-05-01T09:29:26Z</time></trkpt>
<trkpt lat="49.05311647" lon="-1.06969270"><ele>61.181030292</ele><time>2007-05-01T09:29:30Z</time></trkpt>
<trkpt lat="49.05322217" lon="-1.06939095"><ele>60.7003174104</ele><time>2007-05-01T09:29:35Z</time></trkpt>
<trkpt lat="49.05325108" lon="-1.06929565"><ele>60.2197264488</ele><time>2007-05-01T09:29:37Z</time></trkpt>
<trkpt lat="49.05339207" lon="-1.06875510"><ele>59.739135792</ele><time>2007-05-01T09:29:46Z</time></trkpt>
<trkpt lat="49.05349759" lon="-1.06836249"><ele>60.2197264488</ele><time>2007-05-01T09:29:52Z</time></trkpt>
<trkpt lat="49.05359633" lon="-1.06797257"><ele>59.739135792</ele><time>2007-05-01T09:29:58Z</time></trkpt>
<trkpt lat="49.05370287" lon="-1.06757803"><ele>58.2971190672</ele><time>2007-05-01T09:30:04Z</time></trkpt>
<trkpt lat="49.05373748" lon="-1.06744006"><ele>58.2971190672</ele><time>2007-05-01T09:30:06Z</time></trkpt>
<trkpt lat="49.05385156" lon="-1.06712356"><ele>58.2971190672</ele><time>2007-05-01T09:30:11Z</time></trkpt>
<trkpt lat="49.05387059" lon="-1.06699976"><ele>58.2971190672</ele><time>2007-05-01T09:30:13Z</time></trkpt>
<trkpt lat="49.05397059" lon="-1.06658335"><ele>58.2971190672</ele><time>2007-05-01T09:30:19Z</time></trkpt>
<trkpt lat="49.05399280" lon="-1.06650045"><ele>58.7777100288</ele><time>2007-05-01T09:30:20Z</time></trkpt>
<trkpt lat="49.05412456" lon="-1.06590073"><ele>60.2197264488</ele><time>2007-05-01T09:30:28Z</time></trkpt>
<trkpt lat="49.05422472" lon="-1.06547283"><ele>60.2197264488</ele><time>2007-05-01T09:30:34Z</time></trkpt>
<trkpt lat="49.05429932" lon="-1.06518173"><ele>59.739135792</ele><time>2007-05-01T09:30:38Z</time></trkpt>
<trkpt lat="49.05445254" lon="-1.06508500"><ele>58.2971190672</ele><time>2007-05-01T09:30:42Z</time></trkpt>
<trkpt lat="49.05480299" lon="-1.06522146"><ele>56.3745116856</ele><time>2007-05-01T09:30:49Z</time></trkpt>
<trkpt lat="49.05511195" lon="-1.06534274"><ele>54.4517820792</ele><time>2007-05-01T09:30:55Z</time></trkpt>
<trkpt lat="49.05526106" lon="-1.06539605"><ele>54.4517820792</ele><time>2007-05-01T09:30:58Z</time></trkpt>
<trkpt lat="49.05557622" lon="-1.06551600"><ele>53.0097656592</ele><time>2007-05-01T09:31:04Z</time></trkpt>
<trkpt lat="49.05589834" lon="-1.06564659"><ele>53.0097656592</ele><time>2007-05-01T09:31:10Z</time></trkpt>
<trkpt lat="49.05623915" lon="-1.06579956"><ele>50.606567316</ele><time>2007-05-01T09:31:16Z</time></trkpt>
<trkpt lat="49.05629857" lon="-1.06582319"><ele>51.0871582776</ele><time>2007-05-01T09:31:17Z</time></trkpt>
<trkpt lat="49.05649463" lon="-1.06577533"><ele>48.6839599344</ele><time>2007-05-01T09:31:21Z</time></trkpt>
<trkpt lat="49.05664793" lon="-1.06562018"><ele>47.7225341712</ele><time>2007-05-01T09:31:25Z</time></trkpt>
<trkpt lat="49.05695655" lon="-1.06507528"><ele>48.2033692776</ele><time>2007-05-01T09:31:34Z</time></trkpt>
<trkpt lat="49.05724204" lon="-1.06453347"><ele>47.7225341712</ele><time>2007-05-01T09:31:43Z</time></trkpt>
<trkpt lat="49.05746349" lon="-1.06406685"><ele>46.2806396712</ele><time>2007-05-01T09:31:50Z</time></trkpt>
<trkpt lat="49.05761034" lon="-1.06374373"><ele>45.319213908</ele><time>2007-05-01T09:31:55Z</time></trkpt>
<trkpt lat="49.05757229" lon="-1.06355932"><ele>45.7999267896</ele><time>2007-05-01T09:31:59Z</time></trkpt>
<trkpt lat="49.05729585" lon="-1.06330066"><ele>45.7999267896</ele><time>2007-05-01T09:32:06Z</time></trkpt>
<trkpt lat="49.05708983" lon="-1.06311349"><ele>47.2418212896</ele><time>2007-05-01T09:32:11Z</time></trkpt>
<trkpt lat="49.05687366" lon="-1.06290596"><ele>48.6839599344</ele><time>2007-05-01T09:32:16Z</time></trkpt>
<trkpt lat="49.05655632" lon="-1.06262114"><ele>51.0871582776</ele><time>2007-05-01T09:32:23Z</time></trkpt>
<trkpt lat="49.05616698" lon="-1.06227455"><ele>51.5678711592</ele><time>2007-05-01T09:32:31Z</time></trkpt>
<trkpt lat="49.05577169" lon="-1.06191664"><ele>52.5291746976</ele><time>2007-05-01T09:32:39Z</time></trkpt>
<trkpt lat="49.05538176" lon="-1.06154943"><ele>53.9711914224</ele><time>2007-05-01T09:32:47Z</time></trkpt>
<trkpt lat="49.05496543" lon="-1.06111164"><ele>53.9711914224</ele><time>2007-05-01T09:32:56Z</time></trkpt>
<trkpt lat="49.05465354" lon="-1.06078969"><ele>53.0097656592</ele><time>2007-05-01T09:33:02Z</time></trkpt>
<trkpt lat="49.05427988" lon="-1.06041938"><ele>52.5291746976</ele><time>2007-05-01T09:33:09Z</time></trkpt>
<trkpt lat="49.05390043" lon="-1.06006139"><ele>53.9711914224</ele><time>2007-05-01T09:33:16Z</time></trkpt>
<trkpt lat="49.05358887" lon="-1.05979543"><ele>55.4130859224</ele><time>2007-05-01T09:33:22Z</time></trkpt>
<trkpt lat="49.05328017" lon="-1.05952377"><ele>55.4130859224</ele><time>2007-05-01T09:33:28Z</time></trkpt>
<trkpt lat="49.05290784" lon="-1.05917584"><ele>53.9711914224</ele><time>2007-05-01T09:33:35Z</time></trkpt>
<trkpt lat="49.05256058" lon="-1.05881450"><ele>52.5291746976</ele><time>2007-05-01T09:33:41Z</time></trkpt>
<trkpt lat="49.05211785" lon="-1.05840353"><ele>50.606567316</ele><time>2007-05-01T09:33:48Z</time></trkpt>
<trkpt lat="49.05193345" lon="-1.05823975"><ele>50.1259766592</ele><time>2007-05-01T09:33:51Z</time></trkpt>
<trkpt lat="49.05188357" lon="-1.05819298"><ele>50.1259766592</ele><time>2007-05-01T09:33:52Z</time></trkpt>
<trkpt lat="49.05175164" lon="-1.05820170"><ele>49.164550896</ele><time>2007-05-01T09:33:55Z</time></trkpt>
<trkpt lat="49.05172390" lon="-1.05826498"><ele>49.164550896</ele><time>2007-05-01T09:33:56Z</time></trkpt>
<trkpt lat="49.05167579" lon="-1.05840362"><ele>49.164550896</ele><time>2007-05-01T09:33:58Z</time></trkpt>
<trkpt lat="49.05148443" lon="-1.05889220"><ele>51.0871582776</ele><time>2007-05-01T09:34:05Z</time></trkpt>
<trkpt lat="49.05142223" lon="-1.05910887"><ele>51.5678711592</ele><time>2007-05-01T09:34:08Z</time></trkpt>
<trkpt lat="49.05127857" lon="-1.05963358"><ele>51.5678711592</ele><time>2007-05-01T09:34:15Z</time></trkpt>
<trkpt lat="49.05102594" lon="-1.06038309"><ele>53.4904785408</ele><time>2007-05-01T09:34:25Z</time></trkpt>
<trkpt lat="49.05085922" lon="-1.06084275"><ele>54.9323730408</ele><time>2007-05-01T09:34:32Z</time></trkpt>
<trkpt lat="49.05080097" lon="-1.06096999"><ele>55.4130859224</ele><time>2007-05-01T09:34:36Z</time></trkpt>
<trkpt lat="49.05077666" lon="-1.06100008"><ele>55.4130859224</ele><time>2007-05-01T09:34:38Z</time></trkpt>
<trkpt lat="49.05070877" lon="-1.06094006"><ele>54.9323730408</ele><time>2007-05-01T09:34:42Z</time></trkpt>
<trkpt lat="49.05062604" lon="-1.06075206"><ele>54.4517820792</ele><time>2007-05-01T09:34:46Z</time></trkpt>
<trkpt lat="49.05045480" lon="-1.06077435"><ele>53.9711914224</ele><time>2007-05-01T09:34:50Z</time></trkpt>
<trkpt lat="49.05022287" lon="-1.06091735"><ele>53.9711914224</ele><time>2007-05-01T09:34:55Z</time></trkpt>
<trkpt lat="49.04993889" lon="-1.06108482"><ele>54.4517820792</ele><time>2007-05-01T09:35:01Z</time></trkpt>
<trkpt lat="49.04976253" lon="-1.06135053"><ele>53.9711914224</ele><time>2007-05-01T09:35:06Z</time></trkpt>
<trkpt lat="49.04961845" lon="-1.06152428"><ele>53.9711914224</ele><time>2007-05-01T09:35:10Z</time></trkpt>
<trkpt lat="49.04957008" lon="-1.06151884"><ele>53.9711914224</ele><time>2007-05-01T09:35:11Z</time></trkpt>
<trkpt lat="49.04899232" lon="-1.06137475"><ele>54.4517820792</ele><time>2007-05-01T09:35:22Z</time></trkpt>
<trkpt lat="49.04879166" lon="-1.06130476"><ele>54.4517820792</ele><time>2007-05-01T09:35:26Z</time></trkpt>
<trkpt lat="49.04863634" lon="-1.06146217"><ele>53.9711914224</ele><time>2007-05-01T09:35:30Z</time></trkpt>
<trkpt lat="49.04862050" lon="-1.06154038"><ele>53.9711914224</ele><time>2007-05-01T09:35:31Z</time></trkpt>
<trkpt lat="49.04845068" lon="-1.06242115"><ele>53.9711914224</ele><time>2007-05-01T09:35:42Z</time></trkpt>
<trkpt lat="49.04831599" lon="-1.06333620"><ele>53.4904785408</ele><time>2007-05-01T09:35:53Z</time></trkpt>
<trkpt lat="49.04825974" lon="-1.06384129"><ele>51.5678711592</ele><time>2007-05-01T09:35:59Z</time></trkpt>
<trkpt lat="49.04818112" lon="-1.06432317"><ele>49.164550896</ele><time>2007-05-01T09:36:05Z</time></trkpt>
<trkpt lat="49.04816176" lon="-1.06439902"><ele>48.6839599344</ele><time>2007-05-01T09:36:06Z</time></trkpt>
<trkpt lat="49.04809345" lon="-1.06477713"><ele>44.8386229464</ele><time>2007-05-01T09:36:11Z</time></trkpt>
<trkpt lat="49.04802882" lon="-1.06515516"><ele>43.877319408</ele><time>2007-05-01T09:36:16Z</time></trkpt>
<trkpt lat="49.04803075" lon="-1.06562354"><ele>43.877319408</ele><time>2007-05-01T09:36:22Z</time></trkpt>
<trkpt lat="49.04803335" lon="-1.06570115"><ele>43.877319408</ele><time>2007-05-01T09:36:23Z</time></trkpt>
<trkpt lat="49.04805195" lon="-1.06588195"><ele>42.435424908</ele><time>2007-05-01T09:36:26Z</time></trkpt>
<trkpt lat="49.04797224" lon="-1.06602528"><ele>40.9934081832</ele><time>2007-05-01T09:36:30Z</time></trkpt>
<trkpt lat="49.04774610" lon="-1.06602662"><ele>40.5128175264</ele><time>2007-05-01T09:36:34Z</time></trkpt>
<trkpt lat="49.04763537" lon="-1.06597792"><ele>40.03210434</ele><time>2007-05-01T09:36:36Z</time></trkpt>
<trkpt lat="49.04710547" lon="-1.06572739"><ele>39.0706785768</ele><time>2007-05-01T09:36:45Z</time></trkpt>
<trkpt lat="49.04673457" lon="-1.06557626"><ele>39.0706785768</ele><time>2007-05-01T09:36:51Z</time></trkpt>
<trkpt lat="49.04667296" lon="-1.06555539"><ele>38.59008792</ele><time>2007-05-01T09:36:52Z</time></trkpt>
<trkpt lat="49.04623912" lon="-1.06527334"><ele>37.6286621568</ele><time>2007-05-01T09:36:59Z</time></trkpt>
<trkpt lat="49.04602840" lon="-1.06518424"><ele>37.1480711952</ele><time>2007-05-01T09:37:02Z</time></trkpt>
<trkpt lat="49.04574735" lon="-1.06518374"><ele>37.6286621568</ele><time>2007-05-01T09:37:06Z</time></trkpt>
<trkpt lat="49.04551148" lon="-1.06524887"><ele>39.5512695384</ele><time>2007-05-01T09:37:10Z</time></trkpt>
<trkpt lat="49.04534963" lon="-1.06527979"><ele>40.9934081832</ele><time>2007-05-01T09:37:13Z</time></trkpt>
<trkpt lat="49.04523983" lon="-1.06529019"><ele>41.9547120264</ele><time>2007-05-01T09:37:15Z</time></trkpt>
<trkpt lat="49.04518384" lon="-1.06529346"><ele>41.9547120264</ele><time>2007-05-01T09:37:16Z</time></trkpt>
<trkpt lat="49.04483540" lon="-1.06532028"><ele>43.3966065264</ele><time>2007-05-01T09:37:22Z</time></trkpt>
<trkpt lat="49.04477564" lon="-1.06532162"><ele>43.877319408</ele><time>2007-05-01T09:37:23Z</time></trkpt>
<trkpt lat="49.04457942" lon="-1.06517955"><ele>43.877319408</ele><time>2007-05-01T09:37:27Z</time></trkpt>
<trkpt lat="49.04455419" lon="-1.06510696"><ele>43.877319408</ele><time>2007-05-01T09:37:28Z</time></trkpt>
<trkpt lat="49.04433215" lon="-1.06437497"><ele>42.9160155648</ele><time>2007-05-01T09:37:38Z</time></trkpt>
<trkpt lat="49.04414549" lon="-1.06399904"><ele>41.9547120264</ele><time>2007-05-01T09:37:44Z</time></trkpt>
<trkpt lat="49.04373519" lon="-1.06350417"><ele>40.5128175264</ele><time>2007-05-01T09:37:54Z</time></trkpt>
<trkpt lat="49.04338458" lon="-1.06329127"><ele>40.5128175264</ele><time>2007-05-01T09:38:02Z</time></trkpt>
<trkpt lat="49.04309347" lon="-1.06321516"><ele>41.9547120264</ele><time>2007-05-01T09:38:09Z</time></trkpt>
<trkpt lat="49.04276742" lon="-1.06323444"><ele>43.877319408</ele><time>2007-05-01T09:38:16Z</time></trkpt>
<trkpt lat="49.04248562" lon="-1.06325029"><ele>44.3580322896</ele><time>2007-05-01T09:38:22Z</time></trkpt>
<trkpt lat="49.04211564" lon="-1.06341868"><ele>43.877319408</ele><time>2007-05-01T09:38:30Z</time></trkpt>
<trkpt lat="49.04169923" lon="-1.06368396"><ele>42.435424908</ele><time>2007-05-01T09:38:39Z</time></trkpt>
<trkpt lat="49.04145146" lon="-1.06397222"><ele>43.3966065264</ele><time>2007-05-01T09:38:45Z</time></trkpt>
<trkpt lat="49.04129379" lon="-1.06414623"><ele>44.3580322896</ele><time>2007-05-01T09:38:49Z</time></trkpt>
<trkpt lat="49.04106799" lon="-1.06423583"><ele>44.8386229464</ele><time>2007-05-01T09:38:54Z</time></trkpt>
<trkpt lat="49.04092197" lon="-1.06426064"><ele>45.319213908</ele><time>2007-05-01T09:38:57Z</time></trkpt>
<trkpt lat="49.04057639" lon="-1.06438025"><ele>46.761230328</ele><time>2007-05-01T09:39:04Z</time></trkpt>
<trkpt lat="49.04018579" lon="-1.06457714"><ele>47.7225341712</ele><time>2007-05-01T09:39:12Z</time></trkpt>
<trkpt lat="49.03975982" lon="-1.06485374"><ele>48.2033692776</ele><time>2007-05-01T09:39:21Z</time></trkpt>
<trkpt lat="49.03953695" lon="-1.06521710"><ele>49.164550896</ele><time>2007-05-01T09:39:28Z</time></trkpt>
<trkpt lat="49.03929203" lon="-1.06554416"><ele>51.0871582776</ele><time>2007-05-01T09:39:35Z</time></trkpt>
<trkpt lat="49.03900470" lon="-1.06583099"><ele>51.0871582776</ele><time>2007-05-01T09:39:42Z</time></trkpt>
<trkpt lat="49.03870915" lon="-1.06599837"><ele>49.164550896</ele><time>2007-05-01T09:39:48Z</time></trkpt>
<trkpt lat="49.03835904" lon="-1.06619879"><ele>47.2418212896</ele><time>2007-05-01T09:39:54Z</time></trkpt>
<trkpt lat="49.03830363" lon="-1.06623349"><ele>46.761230328</ele><time>2007-05-01T09:39:55Z</time></trkpt>
<trkpt lat="49.03809576" lon="-1.06638738"><ele>44.8386229464</ele><time>2007-05-01T09:39:59Z</time></trkpt>
<trkpt lat="49.03788529" lon="-1.06634513"><ele>44.8386229464</ele><time>2007-05-01T09:40:04Z</time></trkpt>
<trkpt lat="49.03784020" lon="-1.06612092"><ele>44.3580322896</ele><time>2007-05-01T09:40:07Z</time></trkpt>
<trkpt lat="49.03770433" lon="-1.06609099"><ele>48.2033692776</ele><time>2007-05-01T09:40:11Z</time></trkpt>
<trkpt lat="49.03768220" lon="-1.06610114"><ele>49.164550896</ele><time>2007-05-01T09:40:12Z</time></trkpt>
<trkpt lat="49.03747584" lon="-1.06627305"><ele>49.6452637776</ele><time>2007-05-01T09:40:18Z</time></trkpt>
<trkpt lat="49.03734533" lon="-1.06643532"><ele>49.6452637776</ele><time>2007-05-01T09:40:23Z</time></trkpt>
<trkpt lat="49.03724140" lon="-1.06656407"><ele>48.2033692776</ele><time>2007-05-01T09:40:28Z</time></trkpt>
<trkpt lat="49.03722765" lon="-1.06658385"><ele>48.2033692776</ele><time>2007-05-01T09:40:29Z</time></trkpt>
<trkpt lat="49.03718574" lon="-1.06664479"><ele>48.2033692776</ele><time>2007-05-01T09:40:34Z</time></trkpt>
<trkpt lat="49.03715733" lon="-1.06669944"><ele>47.2418212896</ele><time>2007-05-01T09:40:37Z</time></trkpt>
<trkpt lat="49.03708725" lon="-1.06685232"><ele>46.2806396712</ele><time>2007-05-01T09:40:43Z</time></trkpt>
<trkpt lat="49.03697980" lon="-1.06704662"><ele>47.2418212896</ele><time>2007-05-01T09:40:48Z</time></trkpt>
<trkpt lat="49.03683135" lon="-1.06723890"><ele>48.6839599344</ele><time>2007-05-01T09:40:54Z</time></trkpt>
<trkpt lat="49.03669892" lon="-1.06735759"><ele>50.1259766592</ele><time>2007-05-01T09:40:59Z</time></trkpt>
<trkpt lat="49.03658350" lon="-1.06745129"><ele>53.0097656592</ele><time>2007-05-01T09:41:04Z</time></trkpt>
<trkpt lat="49.03656716" lon="-1.06745792"><ele>53.4904785408</ele><time>2007-05-01T09:41:05Z</time></trkpt>
<trkpt lat="49.03646272" lon="-1.06750502"><ele>57.8165284104</ele><time>2007-05-01T09:41:11Z</time></trkpt>
<trkpt lat="49.03644344" lon="-1.06751005"><ele>58.7777100288</ele><time>2007-05-01T09:41:12Z</time></trkpt>
<trkpt lat="49.03636389" lon="-1.06748248"><ele>62.622924792</ele><time>2007-05-01T09:41:17Z</time></trkpt>
<trkpt lat="49.03635166" lon="-1.06747694"><ele>64.0650634368</ele><time>2007-05-01T09:41:18Z</time></trkpt>
<trkpt lat="49.03621143" lon="-1.06743269"><ele>69.3522949248</ele><time>2007-05-01T09:41:25Z</time></trkpt>
<trkpt lat="49.03618737" lon="-1.06742967"><ele>70.3134765432</ele><time>2007-05-01T09:41:26Z</time></trkpt>
<trkpt lat="49.03611478" lon="-1.06741383"><ele>71.2749023064</ele><time>2007-05-01T09:41:29Z</time></trkpt>
<trkpt lat="49.03598688" lon="-1.06736127"><ele>72.2362061496</ele><time>2007-05-01T09:41:34Z</time></trkpt>
<trkpt lat="49.03579393" lon="-1.06731542"><ele>70.7941894248</ele><time>2007-05-01T09:41:41Z</time></trkpt>
<trkpt lat="49.03561497" lon="-1.06730017"><ele>68.3908691616</ele><time>2007-05-01T09:41:48Z</time></trkpt>
<trkpt lat="49.03546577" lon="-1.06723295"><ele>67.9102782</ele><time>2007-05-01T09:41:53Z</time></trkpt>
<trkpt lat="49.03530769" lon="-1.06719883"><ele>65.5070801616</ele><time>2007-05-01T09:41:58Z</time></trkpt>
<trkpt lat="49.03510133" lon="-1.06716237"><ele>63.5843505552</ele><time>2007-05-01T09:42:03Z</time></trkpt>
<trkpt lat="49.03483177" lon="-1.06708928"><ele>63.1036376736</ele><time>2007-05-01T09:42:09Z</time></trkpt>
<trkpt lat="49.03452105" lon="-1.06696942"><ele>63.5843505552</ele><time>2007-05-01T09:42:16Z</time></trkpt>
<trkpt lat="49.03438182" lon="-1.06690957"><ele>63.1036376736</ele><time>2007-05-01T09:42:19Z</time></trkpt>
<trkpt lat="49.03409584" lon="-1.06682282"><ele>63.1036376736</ele><time>2007-05-01T09:42:25Z</time></trkpt>
<trkpt lat="49.03405577" lon="-1.06681578"><ele>63.5843505552</ele><time>2007-05-01T09:42:26Z</time></trkpt>
<trkpt lat="49.03379300" lon="-1.06674856"><ele>63.5843505552</ele><time>2007-05-01T09:42:32Z</time></trkpt>
<trkpt lat="49.03371220" lon="-1.06672525"><ele>64.5456543984</ele><time>2007-05-01T09:42:34Z</time></trkpt>
<trkpt lat="49.03349594" lon="-1.06665174"><ele>63.5843505552</ele><time>2007-05-01T09:42:39Z</time></trkpt>
<trkpt lat="49.03330710" lon="-1.06661176"><ele>63.5843505552</ele><time>2007-05-01T09:42:44Z</time></trkpt>
<trkpt lat="49.03309328" lon="-1.06655192"><ele>65.02636728</ele><time>2007-05-01T09:42:50Z</time></trkpt>
<trkpt lat="49.03293796" lon="-1.06650456"><ele>67.9102782</ele><time>2007-05-01T09:42:55Z</time></trkpt>
<trkpt lat="49.03289094" lon="-1.06632183"><ele>68.8715820432</ele><time>2007-05-01T09:43:00Z</time></trkpt>
<trkpt lat="49.03292027" lon="-1.06597105"><ele>69.8328858864</ele><time>2007-05-01T09:43:07Z</time></trkpt>
<trkpt lat="49.03296604" lon="-1.06544274"><ele>73.1976319128</ele><time>2007-05-01T09:43:18Z</time></trkpt>
<trkpt lat="49.03301097" lon="-1.06506933"><ele>74.1588135312</ele><time>2007-05-01T09:43:26Z</time></trkpt>
<trkpt lat="49.03312462" lon="-1.06466088"><ele>74.6395264128</ele><time>2007-05-01T09:43:35Z</time></trkpt>
<trkpt lat="49.03329570" lon="-1.06418118"><ele>74.6395264128</ele><time>2007-05-01T09:43:45Z</time></trkpt>
<trkpt lat="49.03351539" lon="-1.06352647"><ele>74.6395264128</ele><time>2007-05-01T09:43:58Z</time></trkpt>
<trkpt lat="49.03369158" lon="-1.06297997"><ele>75.1202392944</ele><time>2007-05-01T09:44:09Z</time></trkpt>
<trkpt lat="49.03385444" lon="-1.06248418"><ele>76.5621337944</ele><time>2007-05-01T09:44:20Z</time></trkpt>
<trkpt lat="49.03400489" lon="-1.06202074"><ele>78.0040282944</ele><time>2007-05-01T09:44:30Z</time></trkpt>
<trkpt lat="49.03411872" lon="-1.06164247"><ele>78.484741176</ele><time>2007-05-01T09:44:38Z</time></trkpt>
<trkpt lat="49.03427462" lon="-1.06135665"><ele>78.0040282944</ele><time>2007-05-01T09:44:45Z</time></trkpt>
<trkpt lat="49.03452608" lon="-1.06104467"><ele>76.0814209128</ele><time>2007-05-01T09:44:54Z</time></trkpt>
<trkpt lat="49.03464795" lon="-1.06084183"><ele>75.6008299512</ele><time>2007-05-01T09:44:59Z</time></trkpt>
<trkpt lat="49.03477100" lon="-1.06039004"><ele>78.0040282944</ele><time>2007-05-01T09:45:08Z</time></trkpt>
<trkpt lat="49.03481953" lon="-1.06008285"><ele>79.926635676</ele><time>2007-05-01T09:45:14Z</time></trkpt>
<trkpt lat="49.03491332" lon="-1.05985645"><ele>80.4074707824</ele><time>2007-05-01T09:45:19Z</time></trkpt>
<trkpt lat="49.03492698" lon="-1.05980784"><ele>81.3687743208</ele><time>2007-05-01T09:45:20Z</time></trkpt>
<trkpt lat="49.03484174" lon="-1.05951916"><ele>82.330078164</ele><time>2007-05-01T09:45:26Z</time></trkpt>
<trkpt lat="49.03467427" lon="-1.05907819"><ele>82.8107910456</ele><time>2007-05-01T09:45:34Z</time></trkpt>
<trkpt lat="49.03449180" lon="-1.05873814"><ele>82.8107910456</ele><time>2007-05-01T09:45:40Z</time></trkpt>
<trkpt lat="49.03430739" lon="-1.05862096"><ele>82.330078164</ele><time>2007-05-01T09:45:44Z</time></trkpt>
<trkpt lat="49.03417488" lon="-1.05870335"><ele>80.888183664</ele><time>2007-05-01T09:45:47Z</time></trkpt>
<trkpt lat="49.03396290" lon="-1.05891793"><ele>78.9654540576</ele><time>2007-05-01T09:45:52Z</time></trkpt>
<trkpt lat="49.03380440" lon="-1.05908272"><ele>79.4460450192</ele><time>2007-05-01T09:45:55Z</time></trkpt>
<trkpt lat="49.03357984" lon="-1.05925120"><ele>80.888183664</ele><time>2007-05-01T09:46:00Z</time></trkpt>
<trkpt lat="49.03340793" lon="-1.05941179"><ele>82.330078164</ele><time>2007-05-01T09:46:04Z</time></trkpt>
<trkpt lat="49.03325572" lon="-1.05956082"><ele>81.3687743208</ele><time>2007-05-01T09:46:08Z</time></trkpt>
<trkpt lat="49.03309386" lon="-1.05964028"><ele>81.8493652824</ele><time>2007-05-01T09:46:12Z</time></trkpt>
<trkpt lat="49.03303905" lon="-1.05952855"><ele>81.3687743208</ele><time>2007-05-01T09:46:14Z</time></trkpt>
<trkpt lat="49.03290343" lon="-1.05918892"><ele>81.3687743208</ele><time>2007-05-01T09:46:19Z</time></trkpt>
<trkpt lat="49.03274668" lon="-1.05901030"><ele>81.3687743208</ele><time>2007-05-01T09:46:23Z</time></trkpt>
<trkpt lat="49.03237428" lon="-1.05886445"><ele>83.2913817024</ele><time>2007-05-01T09:46:31Z</time></trkpt>
<trkpt lat="49.03210547" lon="-1.05876412"><ele>83.771972664</ele><time>2007-05-01T09:46:37Z</time></trkpt>
<trkpt lat="49.03182903" lon="-1.05865030"><ele>83.2913817024</ele><time>2007-05-01T09:46:42Z</time></trkpt>
<trkpt lat="49.03171747" lon="-1.05860797"><ele>83.2913817024</ele><time>2007-05-01T09:46:44Z</time></trkpt>
<trkpt lat="49.03160457" lon="-1.05856296"><ele>84.7333984272</ele><time>2007-05-01T09:46:46Z</time></trkpt>
<trkpt lat="49.03137834" lon="-1.05845835"><ele>84.7333984272</ele><time>2007-05-01T09:46:50Z</time></trkpt>
<trkpt lat="49.03121992" lon="-1.05837856"><ele>84.2526855456</ele><time>2007-05-01T09:46:53Z</time></trkpt>
<trkpt lat="49.03108992" lon="-1.05815518"><ele>82.8107910456</ele><time>2007-05-01T09:46:57Z</time></trkpt>
<trkpt lat="49.03101842" lon="-1.05783449"><ele>80.888183664</ele><time>2007-05-01T09:47:02Z</time></trkpt>
<trkpt lat="49.03091080" lon="-1.05739284"><ele>77.5234376376</ele><time>2007-05-01T09:47:08Z</time></trkpt>
<trkpt lat="49.03083838" lon="-1.05713368"><ele>76.5621337944</ele><time>2007-05-01T09:47:11Z</time></trkpt>
<trkpt lat="49.03075959" lon="-1.05688306"><ele>73.1976319128</ele><time>2007-05-01T09:47:15Z</time></trkpt>
<trkpt lat="49.03086964" lon="-1.05677493"><ele>70.7941894248</ele><time>2007-05-01T09:47:18Z</time></trkpt>
<trkpt lat="49.03105178" lon="-1.05663688"><ele>65.9876708184</ele><time>2007-05-01T09:47:22Z</time></trkpt>
<trkpt lat="49.03101909" lon="-1.05647637"><ele>62.1423341352</ele><time>2007-05-01T09:47:25Z</time></trkpt>
<trkpt lat="49.03085967" lon="-1.05645315"><ele>60.7003174104</ele><time>2007-05-01T09:47:28Z</time></trkpt>
<trkpt lat="49.03081600" lon="-1.05647570"><ele>60.2197264488</ele><time>2007-05-01T09:47:29Z</time></trkpt>
<trkpt lat="49.03068507" lon="-1.05656127"><ele>58.7777100288</ele><time>2007-05-01T09:47:32Z</time></trkpt>
<trkpt lat="49.03053680" lon="-1.05659723"><ele>57.3358155288</ele><time>2007-05-01T09:47:35Z</time></trkpt>
<trkpt lat="49.03032306" lon="-1.05665859"><ele>55.4130859224</ele><time>2007-05-01T09:47:39Z</time></trkpt>
<trkpt lat="49.03013765" lon="-1.05671466"><ele>53.9711914224</ele><time>2007-05-01T09:47:42Z</time></trkpt>
<trkpt lat="49.02971252" lon="-1.05675733"><ele>49.164550896</ele><time>2007-05-01T09:47:47Z</time></trkpt>
<trkpt lat="49.02950130" lon="-1.05682388"><ele>46.2806396712</ele><time>2007-05-01T09:47:49Z</time></trkpt>
<trkpt lat="49.02892973" lon="-1.05713485"><ele>39.5512695384</ele><time>2007-05-01T09:47:54Z</time></trkpt>
<trkpt lat="49.02846177" lon="-1.05751908"><ele>36.1867676568</ele><time>2007-05-01T09:47:59Z</time></trkpt>
<trkpt lat="49.02821233" lon="-1.05774312"><ele>35.2254638136</ele><time>2007-05-01T09:48:02Z</time></trkpt>
<trkpt lat="49.02797202" lon="-1.05798704"><ele>33.7834473936</ele><time>2007-05-01T09:48:05Z</time></trkpt>
<trkpt lat="49.02772735" lon="-1.05820639"><ele>32.8222657752</ele><time>2007-05-01T09:48:08Z</time></trkpt>
<trkpt lat="49.02748369" lon="-1.05839859"><ele>31.3801268256</ele><time>2007-05-01T09:48:11Z</time></trkpt>
<trkpt lat="49.02719954" lon="-1.05860596"><ele>30.4188232872</ele><time>2007-05-01T09:48:15Z</time></trkpt>
<trkpt lat="49.02687332" lon="-1.05878952"><ele>27.0543214056</ele><time>2007-05-01T09:48:20Z</time></trkpt>
<trkpt lat="49.02659906" lon="-1.05892816"><ele>26.0928956424</ele><time>2007-05-01T09:48:24Z</time></trkpt>
<trkpt lat="49.02642916" lon="-1.05882213"><ele>26.0928956424</ele><time>2007-05-01T09:48:28Z</time></trkpt>
<trkpt lat="49.02641525" lon="-1.05874199"><ele>26.573608524</ele><time>2007-05-01T09:48:29Z</time></trkpt>
<trkpt lat="49.02631039" lon="-1.05821234"><ele>27.0543214056</ele><time>2007-05-01T09:48:36Z</time></trkpt>
<trkpt lat="49.02616865" lon="-1.05778352"><ele>25.6123046808</ele><time>2007-05-01T09:48:41Z</time></trkpt>
<trkpt lat="49.02605524" lon="-1.05737633"><ele>26.573608524</ele><time>2007-05-01T09:48:46Z</time></trkpt>
<trkpt lat="49.02610520" lon="-1.05713334"><ele>27.0543214056</ele><time>2007-05-01T09:48:50Z</time></trkpt>
<trkpt lat="49.02633687" lon="-1.05695204"><ele>26.573608524</ele><time>2007-05-01T09:48:55Z</time></trkpt>
<trkpt lat="49.02642648" lon="-1.05670343"><ele>27.5349120624</ele><time>2007-05-01T09:48:59Z</time></trkpt>
<trkpt lat="49.02643628" lon="-1.05663386"><ele>28.015503024</ele><time>2007-05-01T09:49:00Z</time></trkpt>
<trkpt lat="49.02647627" lon="-1.05629314"><ele>30.4188232872</ele><time>2007-05-01T09:49:05Z</time></trkpt>
<trkpt lat="49.02648523" lon="-1.05622323"><ele>30.8995361688</ele><time>2007-05-01T09:49:06Z</time></trkpt>
<trkpt lat="49.02652614" lon="-1.05601846"><ele>31.3801268256</ele><time>2007-05-01T09:49:09Z</time></trkpt>
<trkpt lat="49.02658213" lon="-1.05582677"><ele>32.3415525888</ele><time>2007-05-01T09:49:12Z</time></trkpt>
<trkpt lat="49.02661172" lon="-1.05571076"><ele>32.8222657752</ele><time>2007-05-01T09:49:14Z</time></trkpt>
<trkpt lat="49.02670844" lon="-1.05537239"><ele>33.7834473936</ele><time>2007-05-01T09:49:21Z</time></trkpt>
<trkpt lat="49.02688480" lon="-1.05481298"><ele>36.1867676568</ele><time>2007-05-01T09:49:33Z</time></trkpt>
<trkpt lat="49.02697423" lon="-1.05453612"><ele>37.6286621568</ele><time>2007-05-01T09:49:40Z</time></trkpt>
<trkpt lat="49.02708957" lon="-1.05418048"><ele>40.5128175264</ele><time>2007-05-01T09:49:50Z</time></trkpt>
<trkpt lat="49.02724673" lon="-1.05382919"><ele>44.3580322896</ele><time>2007-05-01T09:50:00Z</time></trkpt>
<trkpt lat="49.02745485" lon="-1.05339694"><ele>49.164550896</ele><time>2007-05-01T09:50:12Z</time></trkpt>
<trkpt lat="49.02758678" lon="-1.05303182"><ele>51.0871582776</ele><time>2007-05-01T09:50:21Z</time></trkpt>
<trkpt lat="49.02774344" lon="-1.05255347"><ele>52.0485840408</ele><time>2007-05-01T09:50:32Z</time></trkpt>
<trkpt lat="49.02770396" lon="-1.05220612"><ele>53.4904785408</ele><time>2007-05-01T09:50:39Z</time></trkpt>
<trkpt lat="49.02766356" lon="-1.05176465"><ele>55.4130859224</ele><time>2007-05-01T09:50:48Z</time></trkpt>
<trkpt lat="49.02762626" lon="-1.05140179"><ele>57.3358155288</ele><time>2007-05-01T09:50:56Z</time></trkpt>
<trkpt lat="49.02760455" lon="-1.05115469"><ele>58.7777100288</ele><time>2007-05-01T09:51:01Z</time></trkpt>
<trkpt lat="49.02754496" lon="-1.05062932"><ele>63.1036376736</ele><time>2007-05-01T09:51:12Z</time></trkpt>
<trkpt lat="49.02750657" lon="-1.05025574"><ele>65.9876708184</ele><time>2007-05-01T09:51:21Z</time></trkpt>
<trkpt lat="49.02749752" lon="-1.04985743"><ele>67.9102782</ele><time>2007-05-01T09:51:31Z</time></trkpt>
<trkpt lat="49.02750028" lon="-1.04953900"><ele>69.8328858864</ele><time>2007-05-01T09:51:39Z</time></trkpt>
<trkpt lat="49.02746935" lon="-1.04910775"><ele>71.2749023064</ele><time>2007-05-01T09:51:50Z</time></trkpt>
<trkpt lat="49.02744597" lon="-1.04872218"><ele>73.6782225696</ele><time>2007-05-01T09:52:00Z</time></trkpt>
<trkpt lat="49.02743314" lon="-1.04844483"><ele>75.6008299512</ele><time>2007-05-01T09:52:08Z</time></trkpt>
<trkpt lat="49.02741328" lon="-1.04807125"><ele>77.042846676</ele><time>2007-05-01T09:52:19Z</time></trkpt>
<trkpt lat="49.02739165" lon="-1.04766305"><ele>80.4074707824</ele><time>2007-05-01T09:52:31Z</time></trkpt>
<trkpt lat="49.02737196" lon="-1.04725049"><ele>82.8107910456</ele><time>2007-05-01T09:52:43Z</time></trkpt>
<trkpt lat="49.02735679" lon="-1.04693458"><ele>84.7333984272</ele><time>2007-05-01T09:52:52Z</time></trkpt>
<trkpt lat="49.02732409" lon="-1.04667532"><ele>85.6945800456</ele><time>2007-05-01T09:52:59Z</time></trkpt>
<trkpt lat="49.02724899" lon="-1.04633016"><ele>86.6560058088</ele><time>2007-05-01T09:53:08Z</time></trkpt>
<trkpt lat="49.02716350" lon="-1.04593084"><ele>87.1365967704</ele><time>2007-05-01T09:53:18Z</time></trkpt>
<trkpt lat="49.02711027" lon="-1.04554829"><ele>88.0980225336</ele><time>2007-05-01T09:53:27Z</time></trkpt>
<trkpt lat="49.02712737" lon="-1.04527957"><ele>87.6171874272</ele><time>2007-05-01T09:53:34Z</time></trkpt>
<trkpt lat="49.02717808" lon="-1.04494387"><ele>87.6171874272</ele><time>2007-05-01T09:53:43Z</time></trkpt>
<trkpt lat="49.02715612" lon="-1.04465948"><ele>90.5013427968</ele><time>2007-05-01T09:53:50Z</time></trkpt>
<trkpt lat="49.02707599" lon="-1.04433250"><ele>92.4239501784</ele><time>2007-05-01T09:53:59Z</time></trkpt>
<trkpt lat="49.02703433" lon="-1.04404240"><ele>94.34655756</ele><time>2007-05-01T09:54:06Z</time></trkpt>
<trkpt lat="49.02698429" lon="-1.04359229"><ele>96.7498778232</ele><time>2007-05-01T09:54:16Z</time></trkpt>
<trkpt lat="49.02693308" lon="-1.04320882"><ele>98.191894548</ele><time>2007-05-01T09:54:25Z</time></trkpt>
<trkpt lat="49.02692327" lon="-1.04291143"><ele>97.7111816664</ele><time>2007-05-01T09:54:32Z</time></trkpt>
<trkpt lat="49.02695068" lon="-1.04256098"><ele>98.6724852048</ele><time>2007-05-01T09:54:40Z</time></trkpt>
<trkpt lat="49.02694213" lon="-1.04225035"><ele>99.633789048</ele><time>2007-05-01T09:54:47Z</time></trkpt>
<trkpt lat="49.02690114" lon="-1.04185816"><ele>101.075683548</ele><time>2007-05-01T09:54:56Z</time></trkpt>
<trkpt lat="49.02682789" lon="-1.04143202"><ele>102.9982909296</ele><time>2007-05-01T09:55:06Z</time></trkpt>
<trkpt lat="49.02671222" lon="-1.04107504"><ele>103.9597166928</ele><time>2007-05-01T09:55:14Z</time></trkpt>
<trkpt lat="49.02657383" lon="-1.04068494"><ele>103.4790038112</ele><time>2007-05-01T09:55:22Z</time></trkpt>
<trkpt lat="49.02648373" lon="-1.04032854"><ele>102.9982909296</ele><time>2007-05-01T09:55:28Z</time></trkpt>
<trkpt lat="49.02646428" lon="-1.04006703"><ele>102.0371093112</ele><time>2007-05-01T09:55:31Z</time></trkpt>
<trkpt lat="49.02637065" lon="-1.03969328"><ele>102.0371093112</ele><time>2007-05-01T09:55:35Z</time></trkpt>
<trkpt lat="49.02621266" lon="-1.03955548"><ele>102.5177002728</ele><time>2007-05-01T09:55:38Z</time></trkpt>
<trkpt lat="49.02615809" lon="-1.03954073"><ele>102.9982909296</ele><time>2007-05-01T09:55:39Z</time></trkpt>
<trkpt lat="49.02592742" lon="-1.03937829"><ele>104.4404295744</ele><time>2007-05-01T09:55:45Z</time></trkpt>
<trkpt lat="49.02591309" lon="-1.03932858"><ele>105.4017334176</ele><time>2007-05-01T09:55:46Z</time></trkpt>
<trkpt lat="49.02569935" lon="-1.03889415"><ele>108.2856446424</ele><time>2007-05-01T09:55:55Z</time></trkpt>
<trkpt lat="49.02557169" lon="-1.03871436"><ele>109.7276610624</ele><time>2007-05-01T09:56:00Z</time></trkpt>
<trkpt lat="49.02544487" lon="-1.03842326"><ele>111.650268444</ele><time>2007-05-01T09:56:07Z</time></trkpt>
<trkpt lat="49.02532493" lon="-1.03812402"><ele>113.0922851688</ele><time>2007-05-01T09:56:14Z</time></trkpt>
<trkpt lat="49.02527866" lon="-1.03780274"><ele>112.6115722872</ele><time>2007-05-01T09:56:20Z</time></trkpt>
<trkpt lat="49.02526969" lon="-1.03774583"><ele>112.6115722872</ele><time>2007-05-01T09:56:21Z</time></trkpt>
<trkpt lat="49.02516039" lon="-1.03768774"><ele>113.0922851688</ele><time>2007-05-01T09:56:25Z</time></trkpt>
<trkpt lat="49.02504506" lon="-1.03777223"><ele>113.0922851688</ele><time>2007-05-01T09:56:30Z</time></trkpt>
<trkpt lat="49.02499963" lon="-1.03774273"><ele>113.5729980504</ele><time>2007-05-01T09:56:33Z</time></trkpt>
<trkpt lat="49.02500608" lon="-1.03770342"><ele>113.0922851688</ele><time>2007-05-01T10:02:48Z</time></trkpt>
<trkpt lat="49.02499585" lon="-1.03769076"><ele>113.0922851688</ele><time>2007-05-01T10:02:49Z</time></trkpt>
<trkpt lat="49.02498152" lon="-1.03767433"><ele>113.0922851688</ele><time>2007-05-01T10:02:50Z</time></trkpt>
<trkpt lat="49.02493467" lon="-1.03775086"><ele>111.650268444</ele><time>2007-05-01T10:02:53Z</time></trkpt>
<trkpt lat="49.02495269" lon="-1.03777626"><ele>111.1695555624</ele><time>2007-05-01T10:02:54Z</time></trkpt>
<trkpt lat="49.02497415" lon="-1.03779185"><ele>110.6888426808</ele><time>2007-05-01T10:02:55Z</time></trkpt>
<trkpt lat="49.02508940" lon="-1.03785027"><ele>109.2469481808</ele><time>2007-05-01T10:03:01Z</time></trkpt>
<trkpt lat="49.02512804" lon="-1.03772010"><ele>107.3243407992</ele><time>2007-05-01T10:03:05Z</time></trkpt>
<trkpt lat="49.02513139" lon="-1.03754089"><ele>105.8824462992</ele><time>2007-05-01T10:03:10Z</time></trkpt>
<trkpt lat="49.02508428" lon="-1.03748079"><ele>105.8824462992</ele><time>2007-05-01T10:03:13Z</time></trkpt>
<trkpt lat="49.02494087" lon="-1.03731215"><ele>106.3630372608</ele><time>2007-05-01T10:03:21Z</time></trkpt>
<trkpt lat="49.02474808" lon="-1.03711308"><ele>106.3630372608</ele><time>2007-05-01T10:03:29Z</time></trkpt>
<trkpt lat="49.02451373" lon="-1.03692792"><ele>106.8436279176</ele><time>2007-05-01T10:03:37Z</time></trkpt>
<trkpt lat="49.02431566" lon="-1.03683069"><ele>107.3243407992</ele><time>2007-05-01T10:03:43Z</time></trkpt>
<trkpt lat="49.02400092" lon="-1.03663229"><ele>106.8436279176</ele><time>2007-05-01T10:03:52Z</time></trkpt>
<trkpt lat="49.02381769" lon="-1.03646583"><ele>108.2856446424</ele><time>2007-05-01T10:03:58Z</time></trkpt>
<trkpt lat="49.02364134" lon="-1.03638838"><ele>108.7662352992</ele><time>2007-05-01T10:04:04Z</time></trkpt>
<trkpt lat="49.02356573" lon="-1.03630456"><ele>109.2469481808</ele><time>2007-05-01T10:04:07Z</time></trkpt>
<trkpt lat="49.02338024" lon="-1.03619149"><ele>109.2469481808</ele><time>2007-05-01T10:04:14Z</time></trkpt>
<trkpt lat="49.02320498" lon="-1.03613500"><ele>109.2469481808</ele><time>2007-05-01T10:04:20Z</time></trkpt>
<trkpt lat="49.02294262" lon="-1.03600139"><ele>108.7662352992</ele><time>2007-05-01T10:04:28Z</time></trkpt>
<trkpt lat="49.02258497" lon="-1.03579804"><ele>108.2856446424</ele><time>2007-05-01T10:04:38Z</time></trkpt>
<trkpt lat="49.02223259" lon="-1.03560736"><ele>108.2856446424</ele><time>2007-05-01T10:04:46Z</time></trkpt>
<trkpt lat="49.02218775" lon="-1.03558020"><ele>108.2856446424</ele><time>2007-05-01T10:04:47Z</time></trkpt>
<trkpt lat="49.02189304" lon="-1.03546285"><ele>108.7662352992</ele><time>2007-05-01T10:04:53Z</time></trkpt>
<trkpt lat="49.02146163" lon="-1.03547794"><ele>110.208252024</ele><time>2007-05-01T10:05:02Z</time></trkpt>
<trkpt lat="49.02123976" lon="-1.03550275"><ele>112.1309813256</ele><time>2007-05-01T10:05:07Z</time></trkpt>
<trkpt lat="49.02107773" lon="-1.03551633"><ele>113.0922851688</ele><time>2007-05-01T10:05:11Z</time></trkpt>
<trkpt lat="49.02091546" lon="-1.03553913"><ele>114.5341796688</ele><time>2007-05-01T10:05:15Z</time></trkpt>
<trkpt lat="49.02087372" lon="-1.03554307"><ele>114.5341796688</ele><time>2007-05-01T10:05:16Z</time></trkpt>
<trkpt lat="49.02070977" lon="-1.03553167"><ele>114.5341796688</ele><time>2007-05-01T10:05:20Z</time></trkpt>
<trkpt lat="49.02038346" lon="-1.03546268"><ele>113.0922851688</ele><time>2007-05-01T10:05:27Z</time></trkpt>
<trkpt lat="49.02022295" lon="-1.03540225"><ele>112.1309813256</ele><time>2007-05-01T10:05:30Z</time></trkpt>
<trkpt lat="49.01989899" lon="-1.03524023"><ele>109.7276610624</ele><time>2007-05-01T10:05:35Z</time></trkpt>
<trkpt lat="49.01934645" lon="-1.03494435"><ele>105.4017334176</ele><time>2007-05-01T10:05:42Z</time></trkpt>
<trkpt lat="49.01861228" lon="-1.03462416"><ele>102.0371093112</ele><time>2007-05-01T10:05:51Z</time></trkpt>
<trkpt lat="49.01815748" lon="-1.03453766"><ele>101.075683548</ele><time>2007-05-01T10:05:57Z</time></trkpt>
<trkpt lat="49.01770804" lon="-1.03462516"><ele>100.5950928912</ele><time>2007-05-01T10:06:03Z</time></trkpt>
<trkpt lat="49.01717872" lon="-1.03482356"><ele>100.5950928912</ele><time>2007-05-01T10:06:11Z</time></trkpt>
<trkpt lat="49.01656207" lon="-1.03503244"><ele>99.633789048</ele><time>2007-05-01T10:06:20Z</time></trkpt>
<trkpt lat="49.01597575" lon="-1.03520335"><ele>98.191894548</ele><time>2007-05-01T10:06:28Z</time></trkpt>
<trkpt lat="49.01536748" lon="-1.03538842"><ele>96.2692871664</ele><time>2007-05-01T10:06:36Z</time></trkpt>
<trkpt lat="49.01468452" lon="-1.03563803"><ele>93.8658446784</ele><time>2007-05-01T10:06:45Z</time></trkpt>
<trkpt lat="49.01423265" lon="-1.03587407"><ele>92.4239501784</ele><time>2007-05-01T10:06:51Z</time></trkpt>
<trkpt lat="49.01355925" lon="-1.03621806"><ele>90.0206299152</ele><time>2007-05-01T10:07:00Z</time></trkpt>
<trkpt lat="49.01317075" lon="-1.03630683"><ele>87.6171874272</ele><time>2007-05-01T10:07:05Z</time></trkpt>
<trkpt lat="49.01295575" lon="-1.03634094"><ele>85.2139893888</ele><time>2007-05-01T10:07:09Z</time></trkpt>
<trkpt lat="49.01291996" lon="-1.03652434"><ele>82.8107910456</ele><time>2007-05-01T10:07:13Z</time></trkpt>
<trkpt lat="49.01292197" lon="-1.03667152"><ele>81.8493652824</ele><time>2007-05-01T10:07:15Z</time></trkpt>
<trkpt lat="49.01292834" lon="-1.03723688"><ele>78.484741176</ele><time>2007-05-01T10:07:21Z</time></trkpt>
<trkpt lat="49.01292876" lon="-1.03734937"><ele>78.0040282944</ele><time>2007-05-01T10:07:22Z</time></trkpt>
<trkpt lat="49.01291745" lon="-1.03754500"><ele>76.5621337944</ele><time>2007-05-01T10:07:24Z</time></trkpt>
<trkpt lat="49.01284327" lon="-1.03782496"><ele>74.1588135312</ele><time>2007-05-01T10:07:27Z</time></trkpt>
<trkpt lat="49.01261084" lon="-1.03830482"><ele>71.2749023064</ele><time>2007-05-01T10:07:32Z</time></trkpt>
<trkpt lat="49.01219744" lon="-1.03884445"><ele>65.5070801616</ele><time>2007-05-01T10:07:39Z</time></trkpt>
<trkpt lat="49.01211530" lon="-1.03894017"><ele>63.1036376736</ele><time>2007-05-01T10:07:41Z</time></trkpt>
<trkpt lat="49.01201623" lon="-1.03925826"><ele>58.7777100288</ele><time>2007-05-01T10:07:45Z</time></trkpt>
<trkpt lat="49.01199879" lon="-1.03948482"><ele>57.8165284104</ele><time>2007-05-01T10:07:47Z</time></trkpt>
<trkpt lat="49.01193165" lon="-1.03977006"><ele>56.8551026472</ele><time>2007-05-01T10:07:51Z</time></trkpt>
<trkpt lat="49.01179989" lon="-1.03997877"><ele>58.7777100288</ele><time>2007-05-01T10:07:56Z</time></trkpt>
<trkpt lat="49.01175446" lon="-1.04003166"><ele>59.2584229104</ele><time>2007-05-01T10:07:58Z</time></trkpt>
<trkpt lat="49.01171892" lon="-1.04010475"><ele>59.2584229104</ele><time>2007-05-01T10:08:01Z</time></trkpt>
<trkpt lat="49.01169486" lon="-1.04016468"><ele>59.2584229104</ele><time>2007-05-01T10:08:04Z</time></trkpt>
<trkpt lat="49.01168833" lon="-1.04019016"><ele>59.2584229104</ele><time>2007-05-01T10:08:05Z</time></trkpt>
<trkpt lat="49.01160903" lon="-1.04034724"><ele>56.3745116856</ele><time>2007-05-01T10:08:09Z</time></trkpt>
<trkpt lat="49.01153410" lon="-1.04052016"><ele>61.181030292</ele><time>2007-05-01T10:08:15Z</time></trkpt>
<trkpt lat="49.01147517" lon="-1.04069726"><ele>63.5843505552</ele><time>2007-05-01T10:08:20Z</time></trkpt>
<trkpt lat="49.01140443" lon="-1.04088795"><ele>65.02636728</ele><time>2007-05-01T10:08:25Z</time></trkpt>
<trkpt lat="49.01132975" lon="-1.04108627"><ele>66.9489746616</ele><time>2007-05-01T10:08:30Z</time></trkpt>
<trkpt lat="49.01120385" lon="-1.04135374"><ele>65.9876708184</ele><time>2007-05-01T10:08:36Z</time></trkpt>
<trkpt lat="49.01105817" lon="-1.04166487"><ele>65.02636728</ele><time>2007-05-01T10:08:43Z</time></trkpt>
<trkpt lat="49.01102616" lon="-1.04173604"><ele>65.02636728</ele><time>2007-05-01T10:08:45Z</time></trkpt>
<trkpt lat="49.01098165" lon="-1.04182304"><ele>66.46826178</ele><time>2007-05-01T10:08:50Z</time></trkpt>
<trkpt lat="49.01088299" lon="-1.04207374"><ele>67.4296875432</ele><time>2007-05-01T10:08:57Z</time></trkpt>
<trkpt lat="49.01077160" lon="-1.04238655"><ele>68.8715820432</ele><time>2007-05-01T10:09:04Z</time></trkpt>
<trkpt lat="49.01074343" lon="-1.04265192"><ele>69.8328858864</ele><time>2007-05-01T10:09:10Z</time></trkpt>
<trkpt lat="49.01073715" lon="-1.04275368"><ele>70.3134765432</ele><time>2007-05-01T10:09:13Z</time></trkpt>
<trkpt lat="49.01056867" lon="-1.04293155"><ele>72.2362061496</ele><time>2007-05-01T10:09:19Z</time></trkpt>
<trkpt lat="49.01031395" lon="-1.04304479"><ele>75.1202392944</ele><time>2007-05-01T10:09:28Z</time></trkpt>
<trkpt lat="49.01006475" lon="-1.04311243"><ele>78.484741176</ele><time>2007-05-01T10:09:37Z</time></trkpt>
<trkpt lat="49.00982830" lon="-1.04316490"><ele>81.3687743208</ele><time>2007-05-01T10:09:46Z</time></trkpt>
<trkpt lat="49.00958564" lon="-1.04319826"><ele>84.2526855456</ele><time>2007-05-01T10:09:55Z</time></trkpt>
<trkpt lat="49.00930443" lon="-1.04324260"><ele>86.6560058088</ele><time>2007-05-01T10:10:06Z</time></trkpt>
<trkpt lat="49.00929278" lon="-1.04340412"><ele>86.1752929272</ele><time>2007-05-01T10:10:10Z</time></trkpt>
<trkpt lat="49.00937174" lon="-1.04380125"><ele>84.2526855456</ele><time>2007-05-01T10:10:17Z</time></trkpt>
<trkpt lat="49.00947006" lon="-1.04426837"><ele>82.330078164</ele><time>2007-05-01T10:10:23Z</time></trkpt>
<trkpt lat="49.00956435" lon="-1.04472569"><ele>80.4074707824</ele><time>2007-05-01T10:10:28Z</time></trkpt>
<trkpt lat="49.00964147" lon="-1.04510070"><ele>78.484741176</ele><time>2007-05-01T10:10:32Z</time></trkpt>
<trkpt lat="49.00982218" lon="-1.04549213"><ele>75.6008299512</ele><time>2007-05-01T10:10:36Z</time></trkpt>
<trkpt lat="49.01008965" lon="-1.04583923"><ele>73.1976319128</ele><time>2007-05-01T10:10:40Z</time></trkpt>
<trkpt lat="49.01018914" lon="-1.04617090"><ele>72.2362061496</ele><time>2007-05-01T10:10:43Z</time></trkpt>
<trkpt lat="49.01018453" lon="-1.04643208"><ele>72.2362061496</ele><time>2007-05-01T10:10:46Z</time></trkpt>
<trkpt lat="49.01011974" lon="-1.04643644"><ele>71.2749023064</ele><time>2007-05-01T10:10:48Z</time></trkpt>
<trkpt lat="49.01007682" lon="-1.04623728"><ele>72.2362061496</ele><time>2007-05-01T10:10:51Z</time></trkpt>
<trkpt lat="49.00995092" lon="-1.04603469"><ele>72.7169190312</ele><time>2007-05-01T10:10:55Z</time></trkpt>
<trkpt lat="49.00982344" lon="-1.04605137"><ele>74.1588135312</ele><time>2007-05-01T10:10:58Z</time></trkpt>
<trkpt lat="49.00960316" lon="-1.04616185"><ele>76.0814209128</ele><time>2007-05-01T10:11:04Z</time></trkpt>
<trkpt lat="49.00928875" lon="-1.04631389"><ele>78.484741176</ele><time>2007-05-01T10:11:13Z</time></trkpt>
<trkpt lat="49.00900947" lon="-1.04643317"><ele>81.3687743208</ele><time>2007-05-01T10:11:22Z</time></trkpt>
<trkpt lat="49.00894895" lon="-1.04646569"><ele>82.330078164</ele><time>2007-05-01T10:11:24Z</time></trkpt>
<trkpt lat="49.00890755" lon="-1.04662679"><ele>83.2913817024</ele><time>2007-05-01T10:11:28Z</time></trkpt>
<trkpt lat="49.00893378" lon="-1.04676568"><ele>84.2526855456</ele><time>2007-05-01T10:11:31Z</time></trkpt>
<trkpt lat="49.00899908" lon="-1.04711303"><ele>83.2913817024</ele><time>2007-05-01T10:11:38Z</time></trkpt>
<trkpt lat="49.00905079" lon="-1.04734847"><ele>82.330078164</ele><time>2007-05-01T10:11:43Z</time></trkpt>
<trkpt lat="49.00905264" lon="-1.04760295"><ele>81.8493652824</ele><time>2007-05-01T10:11:48Z</time></trkpt>
<trkpt lat="49.00904777" lon="-1.04796764"><ele>82.8107910456</ele><time>2007-05-01T10:11:55Z</time></trkpt>
<trkpt lat="49.00907812" lon="-1.04836503"><ele>84.2526855456</ele><time>2007-05-01T10:12:03Z</time></trkpt>
<trkpt lat="49.00910100" lon="-1.04876124"><ele>85.6945800456</ele><time>2007-05-01T10:12:11Z</time></trkpt>
<trkpt lat="49.00911852" lon="-1.04911119"><ele>87.6171874272</ele><time>2007-05-01T10:12:19Z</time></trkpt>
<trkpt lat="49.00914257" lon="-1.04950313"><ele>87.1365967704</ele><time>2007-05-01T10:12:27Z</time></trkpt>
<trkpt lat="49.00910142" lon="-1.04987629"><ele>85.6945800456</ele><time>2007-05-01T10:12:34Z</time></trkpt>
<trkpt lat="49.00899589" lon="-1.05032288"><ele>86.6560058088</ele><time>2007-05-01T10:12:42Z</time></trkpt>
<trkpt lat="49.00888827" lon="-1.05079369"><ele>86.6560058088</ele><time>2007-05-01T10:12:50Z</time></trkpt>
<trkpt lat="49.00875625" lon="-1.05119962"><ele>86.6560058088</ele><time>2007-05-01T10:12:57Z</time></trkpt>
<trkpt lat="49.00873848" lon="-1.05124690"><ele>86.1752929272</ele><time>2007-05-01T10:12:58Z</time></trkpt>
<trkpt lat="49.00875256" lon="-1.05145267"><ele>85.2139893888</ele><time>2007-05-01T10:13:02Z</time></trkpt>
<trkpt lat="49.00894149" lon="-1.05155527"><ele>82.8107910456</ele><time>2007-05-01T10:13:06Z</time></trkpt>
<trkpt lat="49.00913285" lon="-1.05159684"><ele>81.3687743208</ele><time>2007-05-01T10:13:09Z</time></trkpt>
<trkpt lat="49.00930527" lon="-1.05182458"><ele>77.5234376376</ele><time>2007-05-01T10:13:13Z</time></trkpt>
<trkpt lat="49.00935757" lon="-1.05213814"><ele>73.6782225696</ele><time>2007-05-01T10:13:17Z</time></trkpt>
<trkpt lat="49.00935598" lon="-1.05237410"><ele>69.8328858864</ele><time>2007-05-01T10:13:20Z</time></trkpt>
<trkpt lat="49.00928272" lon="-1.05276109"><ele>64.5456543984</ele><time>2007-05-01T10:13:24Z</time></trkpt>
<trkpt lat="49.00926302" lon="-1.05300735"><ele>62.1423341352</ele><time>2007-05-01T10:13:26Z</time></trkpt>
<trkpt lat="49.00939428" lon="-1.05316702"><ele>59.2584229104</ele><time>2007-05-01T10:13:30Z</time></trkpt>
<trkpt lat="49.00957936" lon="-1.05326559"><ele>57.8165284104</ele><time>2007-05-01T10:13:33Z</time></trkpt>
<trkpt lat="49.00973526" lon="-1.05349987"><ele>55.893798804</ele><time>2007-05-01T10:13:36Z</time></trkpt>
<trkpt lat="49.00983735" lon="-1.05370355"><ele>54.4517820792</ele><time>2007-05-01T10:13:38Z</time></trkpt>
<trkpt lat="49.01009669" lon="-1.05433093"><ele>49.6452637776</ele><time>2007-05-01T10:13:44Z</time></trkpt>
<trkpt lat="49.01012695" lon="-1.05443512"><ele>48.6839599344</ele><time>2007-05-01T10:13:45Z</time></trkpt>
<trkpt lat="49.01023700" lon="-1.05482664"><ele>46.761230328</ele><time>2007-05-01T10:13:49Z</time></trkpt>
<trkpt lat="49.01042442" lon="-1.05491758"><ele>45.319213908</ele><time>2007-05-01T10:13:52Z</time></trkpt>
<trkpt lat="49.01051016" lon="-1.05489705"><ele>44.8386229464</ele><time>2007-05-01T10:13:53Z</time></trkpt>
<trkpt lat="49.01084494" lon="-1.05480024"><ele>41.9547120264</ele><time>2007-05-01T10:13:58Z</time></trkpt>
<trkpt lat="49.01094980" lon="-1.05486570"><ele>41.4739991448</ele><time>2007-05-01T10:14:02Z</time></trkpt>
<trkpt lat="49.01095038" lon="-1.05491884"><ele>41.4739991448</ele><time>2007-05-01T10:14:03Z</time></trkpt>
<trkpt lat="49.01090973" lon="-1.05536216"><ele>40.03210434</ele><time>2007-05-01T10:14:09Z</time></trkpt>
<trkpt lat="49.01080999" lon="-1.05574412"><ele>38.1093750384</ele><time>2007-05-01T10:14:13Z</time></trkpt>
<trkpt lat="49.01057965" lon="-1.05609465"><ele>36.1867676568</ele><time>2007-05-01T10:14:17Z</time></trkpt>
<trkpt lat="49.01049759" lon="-1.05614553"><ele>36.1867676568</ele><time>2007-05-01T10:14:18Z</time></trkpt>
<trkpt lat="49.01008118" lon="-1.05634603"><ele>35.7060547752</ele><time>2007-05-01T10:14:23Z</time></trkpt>
<trkpt lat="49.00977340" lon="-1.05653579"><ele>36.1867676568</ele><time>2007-05-01T10:14:27Z</time></trkpt>
<trkpt lat="49.00938632" lon="-1.05666010"><ele>39.5512695384</ele><time>2007-05-01T10:14:32Z</time></trkpt>
<trkpt lat="49.00922153" lon="-1.05670913"><ele>40.5128175264</ele><time>2007-05-01T10:14:34Z</time></trkpt>
<trkpt lat="49.00889246" lon="-1.05701893"><ele>40.9934081832</ele><time>2007-05-01T10:14:38Z</time></trkpt>
<trkpt lat="49.00863572" lon="-1.05711683"><ele>38.1093750384</ele><time>2007-05-01T10:14:41Z</time></trkpt>
<trkpt lat="49.00826893" lon="-1.05727784"><ele>38.1093750384</ele><time>2007-05-01T10:14:45Z</time></trkpt>
<trkpt lat="49.00769242" lon="-1.05746116"><ele>35.7060547752</ele><time>2007-05-01T10:14:52Z</time></trkpt>
<trkpt lat="49.00736368" lon="-1.05753902"><ele>31.8607177872</ele><time>2007-05-01T10:14:57Z</time></trkpt>
<trkpt lat="49.00730166" lon="-1.05755160"><ele>31.8607177872</ele><time>2007-05-01T10:14:58Z</time></trkpt>
<trkpt lat="49.00719185" lon="-1.05777648"><ele>29.9381104056</ele><time>2007-05-01T10:15:02Z</time></trkpt>
<trkpt lat="49.00724810" lon="-1.05792484"><ele>30.8995361688</ele><time>2007-05-01T10:15:04Z</time></trkpt>
<trkpt lat="49.00737693" lon="-1.05825157"><ele>31.3801268256</ele><time>2007-05-01T10:15:09Z</time></trkpt>
<trkpt lat="49.00740366" lon="-1.05832256"><ele>31.3801268256</ele><time>2007-05-01T10:15:10Z</time></trkpt>
<trkpt lat="49.00746452" lon="-1.05860579"><ele>29.9381104056</ele><time>2007-05-01T10:15:14Z</time></trkpt>
<trkpt lat="49.00736393" lon="-1.05873596"><ele>29.9381104056</ele><time>2007-05-01T10:15:16Z</time></trkpt>
<trkpt lat="49.00691299" lon="-1.05914014"><ele>29.457519444</ele><time>2007-05-01T10:15:24Z</time></trkpt>
<trkpt lat="49.00642055" lon="-1.05956459"><ele>30.4188232872</ele><time>2007-05-01T10:15:34Z</time></trkpt>
<trkpt lat="49.00616784" lon="-1.05979912"><ele>32.3415525888</ele><time>2007-05-01T10:15:41Z</time></trkpt>
<trkpt lat="49.00597908" lon="-1.06006617"><ele>34.2641602752</ele><time>2007-05-01T10:15:47Z</time></trkpt>
<trkpt lat="49.00579384" lon="-1.06031746"><ele>34.7448731568</ele><time>2007-05-01T10:15:53Z</time></trkpt>
<trkpt lat="49.00564673" lon="-1.06050597"><ele>34.2641602752</ele><time>2007-05-01T10:15:57Z</time></trkpt>
<trkpt lat="49.00533468" lon="-1.06092992"><ele>35.2254638136</ele><time>2007-05-01T10:16:05Z</time></trkpt>
<trkpt lat="49.00506562" lon="-1.06123050"><ele>35.7060547752</ele><time>2007-05-01T10:16:12Z</time></trkpt>
<trkpt lat="49.00495263" lon="-1.06131666"><ele>36.1867676568</ele><time>2007-05-01T10:16:15Z</time></trkpt>
<trkpt lat="49.00477460" lon="-1.06142219"><ele>36.6674805384</ele><time>2007-05-01T10:16:20Z</time></trkpt>
<trkpt lat="49.00470586" lon="-1.06152152"><ele>38.1093750384</ele><time>2007-05-01T10:16:24Z</time></trkpt>
<trkpt lat="49.00470746" lon="-1.06155437"><ele>38.1093750384</ele><time>2007-05-01T10:16:25Z</time></trkpt>
<trkpt lat="49.00471659" lon="-1.06174967"><ele>39.5512695384</ele><time>2007-05-01T10:16:31Z</time></trkpt>
<trkpt lat="49.00472305" lon="-1.06191547"><ele>40.03210434</ele><time>2007-05-01T10:16:36Z</time></trkpt>
<trkpt lat="49.00473369" lon="-1.06206953"><ele>40.9934081832</ele><time>2007-05-01T10:16:41Z</time></trkpt>
<trkpt lat="49.00473378" lon="-1.06214186"><ele>41.4739991448</ele><time>2007-05-01T10:16:44Z</time></trkpt>
<trkpt lat="49.00474383" lon="-1.06222987"><ele>42.435424908</ele><time>2007-05-01T10:16:48Z</time></trkpt>
<trkpt lat="49.00474794" lon="-1.06241520"><ele>43.877319408</ele><time>2007-05-01T10:16:56Z</time></trkpt>
<trkpt lat="49.00474828" lon="-1.06255853"><ele>45.7999267896</ele><time>2007-05-01T10:17:02Z</time></trkpt>
<trkpt lat="49.00475146" lon="-1.06267948"><ele>47.7225341712</ele><time>2007-05-01T10:17:07Z</time></trkpt>
<trkpt lat="49.00477108" lon="-1.06280370"><ele>48.6839599344</ele><time>2007-05-01T10:17:13Z</time></trkpt>
<trkpt lat="49.00477644" lon="-1.06284502"><ele>49.6452637776</ele><time>2007-05-01T10:17:15Z</time></trkpt>
<trkpt lat="49.00478449" lon="-1.06303596"><ele>52.0485840408</ele><time>2007-05-01T10:17:23Z</time></trkpt>
<trkpt lat="49.00476563" lon="-1.06319857"><ele>53.0097656592</ele><time>2007-05-01T10:17:29Z</time></trkpt>
<trkpt lat="49.00475163" lon="-1.06337828"><ele>54.9323730408</ele><time>2007-05-01T10:17:35Z</time></trkpt>
<trkpt lat="49.00473822" lon="-1.06356486"><ele>55.893798804</ele><time>2007-05-01T10:17:41Z</time></trkpt>
<trkpt lat="49.00471794" lon="-1.06378932"><ele>56.3745116856</ele><time>2007-05-01T10:17:48Z</time></trkpt>
<trkpt lat="49.00470503" lon="-1.06406232"><ele>57.8165284104</ele><time>2007-05-01T10:17:56Z</time></trkpt>
<trkpt lat="49.00469866" lon="-1.06423382"><ele>59.2584229104</ele><time>2007-05-01T10:18:02Z</time></trkpt>
<trkpt lat="49.00469648" lon="-1.06445736"><ele>60.7003174104</ele><time>2007-05-01T10:18:09Z</time></trkpt>
<trkpt lat="49.00470645" lon="-1.06474914"><ele>64.5456543984</ele><time>2007-05-01T10:18:18Z</time></trkpt>
<trkpt lat="49.00471969" lon="-1.06503580"><ele>68.3908691616</ele><time>2007-05-01T10:18:27Z</time></trkpt>
<trkpt lat="49.00472682" lon="-1.06528952"><ele>71.755493268</ele><time>2007-05-01T10:18:35Z</time></trkpt>
<trkpt lat="49.00472866" lon="-1.06554718"><ele>76.0814209128</ele><time>2007-05-01T10:18:44Z</time></trkpt>
<trkpt lat="49.00475892" lon="-1.06575228"><ele>77.042846676</ele><time>2007-05-01T10:18:51Z</time></trkpt>
<trkpt lat="49.00477678" lon="-1.06606007"><ele>79.4460450192</ele><time>2007-05-01T10:19:01Z</time></trkpt>
<trkpt lat="49.00479346" lon="-1.06636215"><ele>79.4460450192</ele><time>2007-05-01T10:19:10Z</time></trkpt>
<trkpt lat="49.00480184" lon="-1.06669759"><ele>80.4074707824</ele><time>2007-05-01T10:19:20Z</time></trkpt>
<trkpt lat="49.00483327" lon="-1.06698845"><ele>80.888183664</ele><time>2007-05-01T10:19:29Z</time></trkpt>
<trkpt lat="49.00483713" lon="-1.06732808"><ele>85.2139893888</ele><time>2007-05-01T10:19:39Z</time></trkpt>
<trkpt lat="49.00481843" lon="-1.06757677"><ele>89.059326072</ele><time>2007-05-01T10:19:47Z</time></trkpt>
<trkpt lat="49.00480913" lon="-1.06784776"><ele>91.9432372968</ele><time>2007-05-01T10:19:56Z</time></trkpt>
<trkpt lat="49.00477946" lon="-1.06817549"><ele>95.3077391784</ele><time>2007-05-01T10:20:07Z</time></trkpt>
<trkpt lat="49.00470788" lon="-1.06845008"><ele>95.78845206</ele><time>2007-05-01T10:20:16Z</time></trkpt>
<trkpt lat="49.00464049" lon="-1.06866365"><ele>96.7498778232</ele><time>2007-05-01T10:20:23Z</time></trkpt>
<trkpt lat="49.00456119" lon="-1.06891654"><ele>96.7498778232</ele><time>2007-05-01T10:20:31Z</time></trkpt>
<trkpt lat="49.00443454" lon="-1.06921828"><ele>98.191894548</ele><time>2007-05-01T10:20:41Z</time></trkpt>
<trkpt lat="49.00433228" lon="-1.06941853"><ele>98.191894548</ele><time>2007-05-01T10:20:48Z</time></trkpt>
<trkpt lat="49.00419482" lon="-1.06966018"><ele>98.191894548</ele><time>2007-05-01T10:20:57Z</time></trkpt>
<trkpt lat="49.00404110" lon="-1.06990879"><ele>98.191894548</ele><time>2007-05-01T10:21:06Z</time></trkpt>
<trkpt lat="49.00388930" lon="-1.07013568"><ele>98.191894548</ele><time>2007-05-01T10:21:14Z</time></trkpt>
<trkpt lat="49.00372384" lon="-1.07042109"><ele>99.1530761664</ele><time>2007-05-01T10:21:23Z</time></trkpt>
<trkpt lat="49.00361555" lon="-1.07065176"><ele>98.6724852048</ele><time>2007-05-01T10:21:30Z</time></trkpt>
<trkpt lat="49.00350834" lon="-1.07093649"><ele>97.2304687848</ele><time>2007-05-01T10:21:37Z</time></trkpt>
<trkpt lat="49.00340600" lon="-1.07125609"><ele>95.78845206</ele><time>2007-05-01T10:21:43Z</time></trkpt>
<trkpt lat="49.00324079" lon="-1.07167602"><ele>94.8271485216</ele><time>2007-05-01T10:21:50Z</time></trkpt>
<trkpt lat="49.00306704" lon="-1.07209235"><ele>92.90454114</ele><time>2007-05-01T10:21:57Z</time></trkpt>
<trkpt lat="49.00284382" lon="-1.07248974"><ele>93.8658446784</ele><time>2007-05-01T10:22:04Z</time></trkpt>
<trkpt lat="49.00262807" lon="-1.07283038"><ele>95.3077391784</ele><time>2007-05-01T10:22:11Z</time></trkpt>
<trkpt lat="49.00244124" lon="-1.07318779"><ele>97.2304687848</ele><time>2007-05-01T10:22:18Z</time></trkpt>
<trkpt lat="49.00215249" lon="-1.07374460"><ele>99.633789048</ele><time>2007-05-01T10:22:29Z</time></trkpt>
<trkpt lat="49.00201762" lon="-1.07400578"><ele>99.633789048</ele><time>2007-05-01T10:22:34Z</time></trkpt>
<trkpt lat="49.00181855" lon="-1.07447692"><ele>100.1145019296</ele><time>2007-05-01T10:22:41Z</time></trkpt>
<trkpt lat="49.00172073" lon="-1.07481136"><ele>102.5177002728</ele><time>2007-05-01T10:22:47Z</time></trkpt>
<trkpt lat="49.00167639" lon="-1.07535929"><ele>103.4790038112</ele><time>2007-05-01T10:22:56Z</time></trkpt>
<trkpt lat="49.00161177" lon="-1.07601458"><ele>104.4404295744</ele><time>2007-05-01T10:23:06Z</time></trkpt>
<trkpt lat="49.00160523" lon="-1.07607929"><ele>104.4404295744</ele><time>2007-05-01T10:23:07Z</time></trkpt>
<trkpt lat="49.00143424" lon="-1.07683475"><ele>104.4404295744</ele><time>2007-05-01T10:23:18Z</time></trkpt>
<trkpt lat="49.00126157" lon="-1.07734462"><ele>103.9597166928</ele><time>2007-05-01T10:23:25Z</time></trkpt>
<trkpt lat="49.00100173" lon="-1.07782306"><ele>104.4404295744</ele><time>2007-05-01T10:23:32Z</time></trkpt>
<trkpt lat="49.00061717" lon="-1.07841575"><ele>103.4790038112</ele><time>2007-05-01T10:23:41Z</time></trkpt>
<trkpt lat="49.00043009" lon="-1.07889536"><ele>102.9982909296</ele><time>2007-05-01T10:23:47Z</time></trkpt>
<trkpt lat="49.00022389" lon="-1.07971570"><ele>101.5563964296</ele><time>2007-05-01T10:23:56Z</time></trkpt>
<trkpt lat="49.00008484" lon="-1.08050368"><ele>100.1145019296</ele><time>2007-05-01T10:24:04Z</time></trkpt>
<trkpt lat="48.99998124" lon="-1.08139576"><ele>99.1530761664</ele><time>2007-05-01T10:24:13Z</time></trkpt>
<trkpt lat="48.99989465" lon="-1.08241685"><ele>99.1530761664</ele><time>2007-05-01T10:24:23Z</time></trkpt>
<trkpt lat="48.99987806" lon="-1.08291842"><ele>99.1530761664</ele><time>2007-05-01T10:24:28Z</time></trkpt>
<trkpt lat="48.99988594" lon="-1.08372836"><ele>98.6724852048</ele><time>2007-05-01T10:24:36Z</time></trkpt>
<trkpt lat="48.99986163" lon="-1.08486109"><ele>97.7111816664</ele><time>2007-05-01T10:24:47Z</time></trkpt>
<trkpt lat="48.99975618" lon="-1.08539502"><ele>96.2692871664</ele><time>2007-05-01T10:24:52Z</time></trkpt>
<trkpt lat="48.99953876" lon="-1.08614973"><ele>93.3851317968</ele><time>2007-05-01T10:24:59Z</time></trkpt>
<trkpt lat="48.99944974" lon="-1.08676915"><ele>90.9819334536</ele><time>2007-05-01T10:25:04Z</time></trkpt>
<trkpt lat="48.99939668" lon="-1.08754632"><ele>88.5787354152</ele><time>2007-05-01T10:25:10Z</time></trkpt>
<trkpt lat="48.99939769" lon="-1.08781127"><ele>87.6171874272</ele><time>2007-05-01T10:25:12Z</time></trkpt>
<trkpt lat="48.99929099" lon="-1.08832005"><ele>85.6945800456</ele><time>2007-05-01T10:25:16Z</time></trkpt>
<trkpt lat="48.99906258" lon="-1.08888952"><ele>85.2139893888</ele><time>2007-05-01T10:25:22Z</time></trkpt>
<trkpt lat="48.99903920" lon="-1.08893646"><ele>85.2139893888</ele><time>2007-05-01T10:25:23Z</time></trkpt>
<trkpt lat="48.99895588" lon="-1.08906906"><ele>85.6945800456</ele><time>2007-05-01T10:25:27Z</time></trkpt>
<trkpt lat="48.99885848" lon="-1.08931054"><ele>85.6945800456</ele><time>2007-05-01T10:25:32Z</time></trkpt>
<trkpt lat="48.99880224" lon="-1.08947743"><ele>86.1752929272</ele><time>2007-05-01T10:25:35Z</time></trkpt>
<trkpt lat="48.99873225" lon="-1.08971363"><ele>86.1752929272</ele><time>2007-05-01T10:25:39Z</time></trkpt>
<trkpt lat="48.99859504" lon="-1.09020925"><ele>86.1752929272</ele><time>2007-05-01T10:25:47Z</time></trkpt>
<trkpt lat="48.99840578" lon="-1.09089422"><ele>85.2139893888</ele><time>2007-05-01T10:25:57Z</time></trkpt>
<trkpt lat="48.99837258" lon="-1.09102439"><ele>84.7333984272</ele><time>2007-05-01T10:25:59Z</time></trkpt>
<trkpt lat="48.99843419" lon="-1.09122086"><ele>83.2913817024</ele><time>2007-05-01T10:26:03Z</time></trkpt>
<trkpt lat="48.99847425" lon="-1.09124199"><ele>83.2913817024</ele><time>2007-05-01T10:26:04Z</time></trkpt>
<trkpt lat="48.99882286" lon="-1.09140342"><ele>81.8493652824</ele><time>2007-05-01T10:26:11Z</time></trkpt>
<trkpt lat="48.99921304" lon="-1.09160174"><ele>80.4074707824</ele><time>2007-05-01T10:26:18Z</time></trkpt>
<trkpt lat="48.99932586" lon="-1.09164993"><ele>79.926635676</ele><time>2007-05-01T10:26:20Z</time></trkpt>
<trkpt lat="48.99974965" lon="-1.09187356"><ele>78.484741176</ele><time>2007-05-01T10:26:27Z</time></trkpt>
<trkpt lat="49.00030562" lon="-1.09222652"><ele>78.0040282944</ele><time>2007-05-01T10:26:36Z</time></trkpt>
<trkpt lat="49.00050435" lon="-1.09241906"><ele>78.0040282944</ele><time>2007-05-01T10:26:40Z</time></trkpt>
<trkpt lat="49.00066277" lon="-1.09238209"><ele>77.042846676</ele><time>2007-05-01T10:26:44Z</time></trkpt>
<trkpt lat="49.00079696" lon="-1.09210633"><ele>74.1588135312</ele><time>2007-05-01T10:26:48Z</time></trkpt>
<trkpt lat="49.00100316" lon="-1.09190240"><ele>70.7941894248</ele><time>2007-05-01T10:26:52Z</time></trkpt>
<trkpt lat="49.00111087" lon="-1.09184959"><ele>69.8328858864</ele><time>2007-05-01T10:26:54Z</time></trkpt>
<trkpt lat="49.00119050" lon="-1.09178245"><ele>68.3908691616</ele><time>2007-05-01T10:26:56Z</time></trkpt>
<trkpt lat="49.00133349" lon="-1.09189695"><ele>65.9876708184</ele><time>2007-05-01T10:27:00Z</time></trkpt>
<trkpt lat="49.00150767" lon="-1.09218906"><ele>64.0650634368</ele><time>2007-05-01T10:27:04Z</time></trkpt>
<trkpt lat="49.00190799" lon="-1.09262777"><ele>59.2584229104</ele><time>2007-05-01T10:27:10Z</time></trkpt>
<trkpt lat="49.00206682" lon="-1.09277302"><ele>57.3358155288</ele><time>2007-05-01T10:27:13Z</time></trkpt>
<trkpt lat="49.00206565" lon="-1.09294309"><ele>55.4130859224</ele><time>2007-05-01T10:27:17Z</time></trkpt>
<trkpt lat="49.00186113" lon="-1.09329329"><ele>52.0485840408</ele><time>2007-05-01T10:27:22Z</time></trkpt>
<trkpt lat="49.00176449" lon="-1.09344383"><ele>51.5678711592</ele><time>2007-05-01T10:27:24Z</time></trkpt>
<trkpt lat="49.00156877" lon="-1.09378765"><ele>52.0485840408</ele><time>2007-05-01T10:27:29Z</time></trkpt>
<trkpt lat="49.00143332" lon="-1.09404783"><ele>52.0485840408</ele><time>2007-05-01T10:27:33Z</time></trkpt>
<trkpt lat="49.00130642" lon="-1.09429157"><ele>52.5291746976</ele><time>2007-05-01T10:27:37Z</time></trkpt>
<trkpt lat="49.00121036" lon="-1.09446349"><ele>53.0097656592</ele><time>2007-05-01T10:27:40Z</time></trkpt>
<trkpt lat="49.00104348" lon="-1.09472726"><ele>53.9711914224</ele><time>2007-05-01T10:27:46Z</time></trkpt>
<trkpt lat="49.00101523" lon="-1.09477873"><ele>53.9711914224</ele><time>2007-05-01T10:27:47Z</time></trkpt>
<trkpt lat="49.00095480" lon="-1.09487252"><ele>54.4517820792</ele><time>2007-05-01T10:27:49Z</time></trkpt>
<trkpt lat="49.00076662" lon="-1.09511392"><ele>55.893798804</ele><time>2007-05-01T10:27:56Z</time></trkpt>
<trkpt lat="49.00063595" lon="-1.09539002"><ele>56.3745116856</ele><time>2007-05-01T10:28:02Z</time></trkpt>
<trkpt lat="49.00046965" lon="-1.09570216"><ele>56.3745116856</ele><time>2007-05-01T10:28:09Z</time></trkpt>
<trkpt lat="49.00036220" lon="-1.09594306"><ele>55.893798804</ele><time>2007-05-01T10:28:15Z</time></trkpt>
<trkpt lat="49.00031316" lon="-1.09614875"><ele>53.9711914224</ele><time>2007-05-01T10:28:20Z</time></trkpt>
<trkpt lat="49.00030469" lon="-1.09634556"><ele>52.5291746976</ele><time>2007-05-01T10:28:24Z</time></trkpt>
<trkpt lat="49.00033772" lon="-1.09644229"><ele>51.0871582776</ele><time>2007-05-01T10:28:26Z</time></trkpt>
<trkpt lat="49.00031132" lon="-1.09667715"><ele>51.0871582776</ele><time>2007-05-01T10:28:31Z</time></trkpt>
<trkpt lat="49.00038692" lon="-1.09671780"><ele>51.5678711592</ele><time>2007-05-01T10:28:35Z</time></trkpt>
<trkpt lat="49.00049614" lon="-1.09665209"><ele>51.0871582776</ele><time>2007-05-01T10:28:39Z</time></trkpt>
<trkpt lat="49.00055154" lon="-1.09677178"><ele>52.5291746976</ele><time>2007-05-01T10:28:43Z</time></trkpt>
<trkpt lat="49.00051265" lon="-1.09687236"><ele>53.4904785408</ele><time>2007-05-01T10:28:46Z</time></trkpt>
<trkpt lat="49.00041634" lon="-1.09704612"><ele>56.3745116856</ele><time>2007-05-01T10:28:51Z</time></trkpt>
<trkpt lat="49.00029522" lon="-1.09723656"><ele>58.2971190672</ele><time>2007-05-01T10:28:56Z</time></trkpt>
<trkpt lat="49.00016539" lon="-1.09745985"><ele>58.7777100288</ele><time>2007-05-01T10:29:02Z</time></trkpt>
<trkpt lat="49.00004586" lon="-1.09761768"><ele>57.3358155288</ele><time>2007-05-01T10:29:07Z</time></trkpt>
<trkpt lat="48.99975057" lon="-1.09801582"><ele>58.2971190672</ele><time>2007-05-01T10:29:18Z</time></trkpt>
<trkpt lat="48.99960028" lon="-1.09833207"><ele>59.2584229104</ele><time>2007-05-01T10:29:25Z</time></trkpt>
<trkpt lat="48.99956759" lon="-1.09868386"><ele>59.2584229104</ele><time>2007-05-01T10:29:31Z</time></trkpt>
<trkpt lat="48.99963724" lon="-1.09907839"><ele>59.2584229104</ele><time>2007-05-01T10:29:38Z</time></trkpt>
<trkpt lat="48.99970413" lon="-1.09924754"><ele>58.2971190672</ele><time>2007-05-01T10:29:41Z</time></trkpt>
<trkpt lat="48.99975803" lon="-1.09940839"><ele>57.8165284104</ele><time>2007-05-01T10:29:43Z</time></trkpt>
<trkpt lat="48.99993195" lon="-1.09974777"><ele>57.3358155288</ele><time>2007-05-01T10:29:48Z</time></trkpt>
<trkpt lat="49.00012943" lon="-1.10005916"><ele>57.3358155288</ele><time>2007-05-01T10:29:54Z</time></trkpt>
<trkpt lat="49.00028827" lon="-1.10031162"><ele>57.3358155288</ele><time>2007-05-01T10:29:59Z</time></trkpt>
<trkpt lat="49.00040352" lon="-1.10051589"><ele>57.3358155288</ele><time>2007-05-01T10:30:04Z</time></trkpt>
<trkpt lat="49.00037033" lon="-1.10062603"><ele>57.3358155288</ele><time>2007-05-01T10:30:06Z</time></trkpt>
<trkpt lat="49.00009490" lon="-1.10132416"><ele>56.3745116856</ele><time>2007-05-01T10:30:17Z</time></trkpt>
<trkpt lat="48.99991343" lon="-1.10178156"><ele>57.3358155288</ele><time>2007-05-01T10:30:25Z</time></trkpt>
<trkpt lat="48.99973682" lon="-1.10217165"><ele>58.2971190672</ele><time>2007-05-01T10:30:33Z</time></trkpt>
<trkpt lat="48.99956072" lon="-1.10277238"><ele>57.8165284104</ele><time>2007-05-01T10:30:43Z</time></trkpt>
<trkpt lat="48.99946592" lon="-1.10320707"><ele>56.8551026472</ele><time>2007-05-01T10:30:50Z</time></trkpt>
<trkpt lat="48.99941010" lon="-1.10350957"><ele>56.3745116856</ele><time>2007-05-01T10:30:55Z</time></trkpt>
<trkpt lat="48.99931588" lon="-1.10391534"><ele>59.739135792</ele><time>2007-05-01T10:31:01Z</time></trkpt>
<trkpt lat="48.99930716" lon="-1.10398013"><ele>59.739135792</ele><time>2007-05-01T10:31:02Z</time></trkpt>
<trkpt lat="48.99924036" lon="-1.10436972"><ele>61.181030292</ele><time>2007-05-01T10:31:08Z</time></trkpt>
<trkpt lat="48.99920524" lon="-1.10483534"><ele>63.5843505552</ele><time>2007-05-01T10:31:15Z</time></trkpt>
<trkpt lat="48.99920516" lon="-1.10489728"><ele>64.0650634368</ele><time>2007-05-01T10:31:16Z</time></trkpt>
<trkpt lat="48.99924455" lon="-1.10530774"><ele>63.1036376736</ele><time>2007-05-01T10:31:22Z</time></trkpt>
<trkpt lat="48.99932066" lon="-1.10555367"><ele>64.5456543984</ele><time>2007-05-01T10:31:27Z</time></trkpt>
<trkpt lat="48.99942543" lon="-1.10571276"><ele>67.4296875432</ele><time>2007-05-01T10:31:34Z</time></trkpt>
<trkpt lat="48.99951847" lon="-1.10581987"><ele>67.4296875432</ele><time>2007-05-01T10:31:40Z</time></trkpt>
<trkpt lat="48.99963825" lon="-1.10593513"><ele>69.8328858864</ele><time>2007-05-01T10:31:47Z</time></trkpt>
<trkpt lat="48.99974680" lon="-1.10605407"><ele>71.755493268</ele><time>2007-05-01T10:31:53Z</time></trkpt>
<trkpt lat="48.99989943" lon="-1.10620703"><ele>71.755493268</ele><time>2007-05-01T10:32:00Z</time></trkpt>
<trkpt lat="49.00004226" lon="-1.10631466"><ele>71.2749023064</ele><time>2007-05-01T10:32:06Z</time></trkpt>
<trkpt lat="49.00017796" lon="-1.10641885"><ele>71.2749023064</ele><time>2007-05-01T10:32:11Z</time></trkpt>
<trkpt lat="49.00040276" lon="-1.10657064"><ele>72.2362061496</ele><time>2007-05-01T10:32:18Z</time></trkpt>
<trkpt lat="49.00065908" lon="-1.10673300"><ele>73.1976319128</ele><time>2007-05-01T10:32:26Z</time></trkpt>
<trkpt lat="49.00072337" lon="-1.10690198"><ele>72.7169190312</ele><time>2007-05-01T10:32:30Z</time></trkpt>
<trkpt lat="49.00081666" lon="-1.10714229"><ele>71.2749023064</ele><time>2007-05-01T10:32:36Z</time></trkpt>
<trkpt lat="49.00091465" lon="-1.10740422"><ele>70.7941894248</ele><time>2007-05-01T10:32:42Z</time></trkpt>
<trkpt lat="49.00103174" lon="-1.10770832"><ele>70.3134765432</ele><time>2007-05-01T10:32:48Z</time></trkpt>
<trkpt lat="49.00112646" lon="-1.10797872"><ele>69.3522949248</ele><time>2007-05-01T10:32:53Z</time></trkpt>
<trkpt lat="49.00129309" lon="-1.10857425"><ele>69.3522949248</ele><time>2007-05-01T10:33:03Z</time></trkpt>
<trkpt lat="49.00132385" lon="-1.10869420"><ele>68.8715820432</ele><time>2007-05-01T10:33:05Z</time></trkpt>
<trkpt lat="49.00146039" lon="-1.10893199"><ele>69.3522949248</ele><time>2007-05-01T10:33:10Z</time></trkpt>
<trkpt lat="49.00173415" lon="-1.10940205"><ele>72.2362061496</ele><time>2007-05-01T10:33:20Z</time></trkpt>
<trkpt lat="49.00197764" lon="-1.10991469"><ele>74.6395264128</ele><time>2007-05-01T10:33:30Z</time></trkpt>
<trkpt lat="49.00216598" lon="-1.11035373"><ele>76.0814209128</ele><time>2007-05-01T10:33:38Z</time></trkpt>
<trkpt lat="49.00238098" lon="-1.11088162"><ele>78.9654540576</ele><time>2007-05-01T10:33:48Z</time></trkpt>
<trkpt lat="49.00257376" lon="-1.11128270"><ele>79.4460450192</ele><time>2007-05-01T10:33:56Z</time></trkpt>
<trkpt lat="49.00270167" lon="-1.11151739"><ele>79.926635676</ele><time>2007-05-01T10:34:01Z</time></trkpt>
<trkpt lat="49.00283729" lon="-1.11156207"><ele>80.4074707824</ele><time>2007-05-01T10:34:06Z</time></trkpt>
<trkpt lat="49.00291608" lon="-1.11148378"><ele>79.926635676</ele><time>2007-05-01T10:34:09Z</time></trkpt>
<trkpt lat="49.00311456" lon="-1.11109989"><ele>80.888183664</ele><time>2007-05-01T10:34:18Z</time></trkpt>
<trkpt lat="49.00317868" lon="-1.11096938"><ele>81.8493652824</ele><time>2007-05-01T10:34:21Z</time></trkpt>
<trkpt lat="49.00324943" lon="-1.11083175"><ele>82.330078164</ele><time>2007-05-01T10:34:24Z</time></trkpt>
<trkpt lat="49.00337566" lon="-1.11081549"><ele>83.2913817024</ele><time>2007-05-01T10:34:28Z</time></trkpt>
<trkpt lat="49.00346358" lon="-1.11098506"><ele>83.771972664</ele><time>2007-05-01T10:34:32Z</time></trkpt>
<trkpt lat="49.00348655" lon="-1.11102898"><ele>83.771972664</ele><time>2007-05-01T10:34:33Z</time></trkpt>
<trkpt lat="49.00371144" lon="-1.11151043"><ele>84.2526855456</ele><time>2007-05-01T10:34:43Z</time></trkpt>
<trkpt lat="49.00395862" lon="-1.11203640"><ele>85.6945800456</ele><time>2007-05-01T10:34:53Z</time></trkpt>
<trkpt lat="49.00416263" lon="-1.11247234"><ele>87.6171874272</ele><time>2007-05-01T10:35:01Z</time></trkpt>
<trkpt lat="49.00437126" lon="-1.11290334"><ele>88.5787354152</ele><time>2007-05-01T10:35:09Z</time></trkpt>
<trkpt lat="49.00463085" lon="-1.11343165"><ele>89.059326072</ele><time>2007-05-01T10:35:19Z</time></trkpt>
<trkpt lat="49.00467980" lon="-1.11354506"><ele>89.5399170336</ele><time>2007-05-01T10:35:22Z</time></trkpt>
<trkpt lat="49.00459623" lon="-1.11370616"><ele>89.5399170336</ele><time>2007-05-01T10:35:27Z</time></trkpt>
<trkpt lat="49.00453982" lon="-1.11378889"><ele>89.5399170336</ele><time>2007-05-01T10:35:29Z</time></trkpt>
<trkpt lat="49.00454636" lon="-1.11399483"><ele>90.5013427968</ele><time>2007-05-01T10:35:33Z</time></trkpt>
<trkpt lat="49.00468927" lon="-1.11429079"><ele>92.4239501784</ele><time>2007-05-01T10:35:40Z</time></trkpt>
<trkpt lat="49.00486127" lon="-1.11461459"><ele>94.34655756</ele><time>2007-05-01T10:35:48Z</time></trkpt>
<trkpt lat="49.00501507" lon="-1.11496294"><ele>94.34655756</ele><time>2007-05-01T10:35:56Z</time></trkpt>
<trkpt lat="49.00496126" lon="-1.11514952"><ele>93.3851317968</ele><time>2007-05-01T10:36:00Z</time></trkpt>
<trkpt lat="49.00487585" lon="-1.11541766"><ele>92.4239501784</ele><time>2007-05-01T10:36:05Z</time></trkpt>
<trkpt lat="49.00487225" lon="-1.11575000"><ele>92.4239501784</ele><time>2007-05-01T10:36:11Z</time></trkpt>
<trkpt lat="49.00494819" lon="-1.11595167"><ele>92.90454114</ele><time>2007-05-01T10:36:16Z</time></trkpt>
<trkpt lat="49.00505816" lon="-1.11582016"><ele>92.4239501784</ele><time>2007-05-01T10:36:20Z</time></trkpt>
<trkpt lat="49.00531364" lon="-1.11558815"><ele>91.9432372968</ele><time>2007-05-01T10:36:28Z</time></trkpt>
<trkpt lat="49.00551019" lon="-1.11540668"><ele>91.4625244152</ele><time>2007-05-01T10:36:34Z</time></trkpt>
<trkpt lat="49.00569066" lon="-1.11523678"><ele>89.5399170336</ele><time>2007-05-01T10:36:40Z</time></trkpt>
<trkpt lat="49.00583407" lon="-1.11511205"><ele>89.059326072</ele><time>2007-05-01T10:36:44Z</time></trkpt>
<trkpt lat="49.00610623" lon="-1.11489454"><ele>87.1365967704</ele><time>2007-05-01T10:36:51Z</time></trkpt>
<trkpt lat="49.00632835" lon="-1.11469765"><ele>84.7333984272</ele><time>2007-05-01T10:36:56Z</time></trkpt>
<trkpt lat="49.00637378" lon="-1.11465742"><ele>84.2526855456</ele><time>2007-05-01T10:36:57Z</time></trkpt>
<trkpt lat="49.00657402" lon="-1.11452448"><ele>81.8493652824</ele><time>2007-05-01T10:37:01Z</time></trkpt>
<trkpt lat="49.00665089" lon="-1.11447712"><ele>80.888183664</ele><time>2007-05-01T10:37:03Z</time></trkpt>
<trkpt lat="49.00671383" lon="-1.11444502"><ele>80.4074707824</ele><time>2007-05-01T10:37:05Z</time></trkpt>
<trkpt lat="49.00674049" lon="-1.11443178"><ele>79.926635676</ele><time>2007-05-01T10:37:06Z</time></trkpt>
<trkpt lat="49.00680536" lon="-1.11441409"><ele>79.4460450192</ele><time>2007-05-01T10:37:08Z</time></trkpt>
<trkpt lat="49.00698834" lon="-1.11437093"><ele>79.926635676</ele><time>2007-05-01T10:37:13Z</time></trkpt>
<trkpt lat="49.00719378" lon="-1.11435718"><ele>79.926635676</ele><time>2007-05-01T10:37:18Z</time></trkpt>
<trkpt lat="49.00734340" lon="-1.11426615"><ele>79.926635676</ele><time>2007-05-01T10:37:22Z</time></trkpt>
<trkpt lat="49.00755873" lon="-1.11411167"><ele>78.484741176</ele><time>2007-05-01T10:37:27Z</time></trkpt>
<trkpt lat="49.00764674" lon="-1.11402232"><ele>77.5234376376</ele><time>2007-05-01T10:37:29Z</time></trkpt>
<trkpt lat="49.00785503" lon="-1.11386566"><ele>76.0814209128</ele><time>2007-05-01T10:37:34Z</time></trkpt>
<trkpt lat="49.00803918" lon="-1.11373927"><ele>72.7169190312</ele><time>2007-05-01T10:37:39Z</time></trkpt>
<trkpt lat="49.00818067" lon="-1.11365343"><ele>70.3134765432</ele><time>2007-05-01T10:37:43Z</time></trkpt>
<trkpt lat="49.00819458" lon="-1.11363617"><ele>69.8328858864</ele><time>2007-05-01T10:37:44Z</time></trkpt>
<trkpt lat="49.00829064" lon="-1.11349175"><ele>68.3908691616</ele><time>2007-05-01T10:37:50Z</time></trkpt>
<trkpt lat="49.00841620" lon="-1.11337080"><ele>70.3134765432</ele><time>2007-05-01T10:37:55Z</time></trkpt>
<trkpt lat="49.00851946" lon="-1.11330693"><ele>71.755493268</ele><time>2007-05-01T10:37:59Z</time></trkpt>
<trkpt lat="49.00870445" lon="-1.11329293"><ele>74.1588135312</ele><time>2007-05-01T10:38:06Z</time></trkpt>
<trkpt lat="49.00885122" lon="-1.11334800"><ele>76.0814209128</ele><time>2007-05-01T10:38:12Z</time></trkpt>
<trkpt lat="49.00899774" lon="-1.11338094"><ele>78.484741176</ele><time>2007-05-01T10:38:18Z</time></trkpt>
<trkpt lat="49.00913947" lon="-1.11336820"><ele>80.888183664</ele><time>2007-05-01T10:38:24Z</time></trkpt>
<trkpt lat="49.00920720" lon="-1.11334154"><ele>81.8493652824</ele><time>2007-05-01T10:38:28Z</time></trkpt>
<trkpt lat="49.00924634" lon="-1.11331154"><ele>81.8493652824</ele><time>2007-05-01T10:38:31Z</time></trkpt>
<trkpt lat="49.00928984" lon="-1.11325337"><ele>83.2913817024</ele><time>2007-05-01T10:38:34Z</time></trkpt>
<trkpt lat="49.00936478" lon="-1.11316569"><ele>83.771972664</ele><time>2007-05-01T10:38:40Z</time></trkpt>
<trkpt lat="49.00943753" lon="-1.11306528"><ele>84.2526855456</ele><time>2007-05-01T10:38:46Z</time></trkpt>
<trkpt lat="49.00951917" lon="-1.11296796"><ele>85.2139893888</ele><time>2007-05-01T10:38:52Z</time></trkpt>
<trkpt lat="49.00955815" lon="-1.11292706"><ele>85.6945800456</ele><time>2007-05-01T10:38:55Z</time></trkpt>
<trkpt lat="49.00960173" lon="-1.11286378"><ele>87.1365967704</ele><time>2007-05-01T10:39:01Z</time></trkpt>
<trkpt lat="49.00967105" lon="-1.11277409"><ele>88.5787354152</ele><time>2007-05-01T10:39:06Z</time></trkpt>
<trkpt lat="49.00974574" lon="-1.11267443"><ele>90.0206299152</ele><time>2007-05-01T10:39:12Z</time></trkpt>
<trkpt lat="49.00988504" lon="-1.11257242"><ele>93.3851317968</ele><time>2007-05-01T10:39:21Z</time></trkpt>
<trkpt lat="49.00996660" lon="-1.11248927"><ele>94.8271485216</ele><time>2007-05-01T10:39:27Z</time></trkpt>
<trkpt lat="49.01008747" lon="-1.11240503"><ele>94.8271485216</ele><time>2007-05-01T10:39:34Z</time></trkpt>
<trkpt lat="49.01022837" lon="-1.11229875"><ele>95.3077391784</ele><time>2007-05-01T10:39:42Z</time></trkpt>
<trkpt lat="49.01034035" lon="-1.11218392"><ele>97.2304687848</ele><time>2007-05-01T10:39:49Z</time></trkpt>
<trkpt lat="49.01047714" lon="-1.11197999"><ele>98.191894548</ele><time>2007-05-01T10:39:58Z</time></trkpt>
<trkpt lat="49.01059063" lon="-1.11178167"><ele>98.6724852048</ele><time>2007-05-01T10:40:05Z</time></trkpt>
<trkpt lat="49.01071133" lon="-1.11157657"><ele>98.6724852048</ele><time>2007-05-01T10:40:12Z</time></trkpt>
<trkpt lat="49.01081912" lon="-1.11161814"><ele>98.6724852048</ele><time>2007-05-01T10:40:17Z</time></trkpt>
<trkpt lat="49.01095298" lon="-1.11183004"><ele>98.191894548</ele><time>2007-05-01T10:40:24Z</time></trkpt>
<trkpt lat="49.01104158" lon="-1.11200027"><ele>97.7111816664</ele><time>2007-05-01T10:40:28Z</time></trkpt>
<trkpt lat="49.01127434" lon="-1.11245030"><ele>96.7498778232</ele><time>2007-05-01T10:40:37Z</time></trkpt>
<trkpt lat="49.01137576" lon="-1.11266965"><ele>95.78845206</ele><time>2007-05-01T10:40:41Z</time></trkpt>
<trkpt lat="49.01155312" lon="-1.11309336"><ele>93.8658446784</ele><time>2007-05-01T10:40:48Z</time></trkpt>
<trkpt lat="49.01160886" lon="-1.11323928"><ele>92.90454114</ele><time>2007-05-01T10:40:50Z</time></trkpt>
<trkpt lat="49.01177818" lon="-1.11379274"><ele>90.0206299152</ele><time>2007-05-01T10:40:56Z</time></trkpt>
<trkpt lat="49.01191204" lon="-1.11424327"><ele>87.1365967704</ele><time>2007-05-01T10:41:00Z</time></trkpt>
<trkpt lat="49.01215386" lon="-1.11468022"><ele>86.6560058088</ele><time>2007-05-01T10:41:05Z</time></trkpt>
<trkpt lat="49.01227472" lon="-1.11470218"><ele>86.6560058088</ele><time>2007-05-01T10:41:07Z</time></trkpt>
<trkpt lat="49.01252207" lon="-1.11467653"><ele>88.0980225336</ele><time>2007-05-01T10:41:13Z</time></trkpt>
<trkpt lat="49.01261578" lon="-1.11465943"><ele>88.5787354152</ele><time>2007-05-01T10:41:16Z</time></trkpt>
<trkpt lat="49.01285802" lon="-1.11462615"><ele>88.5787354152</ele><time>2007-05-01T10:41:24Z</time></trkpt>
<trkpt lat="49.01300177" lon="-1.11464015"><ele>89.5399170336</ele><time>2007-05-01T10:41:29Z</time></trkpt>
<trkpt lat="49.01327762" lon="-1.11463504"><ele>90.9819334536</ele><time>2007-05-01T10:41:38Z</time></trkpt>
<trkpt lat="49.01353184" lon="-1.11456966"><ele>91.4625244152</ele><time>2007-05-01T10:41:46Z</time></trkpt>
<trkpt lat="49.01371457" lon="-1.11453043"><ele>93.3851317968</ele><time>2007-05-01T10:41:54Z</time></trkpt>
<trkpt lat="49.01378925" lon="-1.11445256"><ele>93.8658446784</ele><time>2007-05-01T10:41:59Z</time></trkpt>
<trkpt lat="49.01382462" lon="-1.11426439"><ele>95.3077391784</ele><time>2007-05-01T10:42:06Z</time></trkpt>
<trkpt lat="49.01378615" lon="-1.11408502"><ele>96.2692871664</ele><time>2007-05-01T10:42:12Z</time></trkpt>
<trkpt lat="49.01369822" lon="-1.11393993"><ele>96.2692871664</ele><time>2007-05-01T10:42:17Z</time></trkpt>
<trkpt lat="49.01359722" lon="-1.11360054"><ele>96.7498778232</ele><time>2007-05-01T10:42:25Z</time></trkpt>
<trkpt lat="49.01354592" lon="-1.11309797"><ele>98.6724852048</ele><time>2007-05-01T10:42:36Z</time></trkpt>
<trkpt lat="49.01349664" lon="-1.11263604"><ele>103.4790038112</ele><time>2007-05-01T10:42:46Z</time></trkpt>
<trkpt lat="49.01345934" lon="-1.11223865"><ele>106.3630372608</ele><time>2007-05-01T10:42:55Z</time></trkpt>
<trkpt lat="49.01344123" lon="-1.11202844"><ele>108.2856446424</ele><time>2007-05-01T10:43:00Z</time></trkpt>
<trkpt lat="49.01341382" lon="-1.11164094"><ele>111.1695555624</ele><time>2007-05-01T10:43:09Z</time></trkpt>
<trkpt lat="49.01338365" lon="-1.11118488"><ele>111.1695555624</ele><time>2007-05-01T10:43:19Z</time></trkpt>
<trkpt lat="49.01335674" lon="-1.11084768"><ele>110.6888426808</ele><time>2007-05-01T10:43:25Z</time></trkpt>
<trkpt lat="49.01334115" lon="-1.11057694"><ele>109.7276610624</ele><time>2007-05-01T10:43:29Z</time></trkpt>
<trkpt lat="49.01333948" lon="-1.11050662"><ele>109.2469481808</ele><time>2007-05-01T10:43:30Z</time></trkpt>
<trkpt lat="49.01342413" lon="-1.11024845"><ele>109.2469481808</ele><time>2007-05-01T10:43:35Z</time></trkpt>
<trkpt lat="49.01356252" lon="-1.11018090"><ele>109.7276610624</ele><time>2007-05-01T10:43:40Z</time></trkpt>
<trkpt lat="49.01382848" lon="-1.11012507"><ele>110.6888426808</ele><time>2007-05-01T10:43:49Z</time></trkpt>
<trkpt lat="49.01414188" lon="-1.11006556"><ele>112.1309813256</ele><time>2007-05-01T10:43:59Z</time></trkpt>
<trkpt lat="49.01440616" lon="-1.11002214"><ele>114.5341796688</ele><time>2007-05-01T10:44:08Z</time></trkpt>
<trkpt lat="49.01466315" lon="-1.10997914"><ele>116.4567870504</ele><time>2007-05-01T10:44:18Z</time></trkpt>
<trkpt lat="49.01486792" lon="-1.10993849"><ele>117.4182128136</ele><time>2007-05-01T10:44:26Z</time></trkpt>
<trkpt lat="49.01513002" lon="-1.10987772"><ele>118.8601073136</ele><time>2007-05-01T10:44:36Z</time></trkpt>
<trkpt lat="49.01535524" lon="-1.10980832"><ele>119.8214111568</ele><time>2007-05-01T10:44:44Z</time></trkpt>
<trkpt lat="49.01567375" lon="-1.10968712"><ele>120.78283692</ele><time>2007-05-01T10:44:55Z</time></trkpt>
<trkpt lat="49.01597726" lon="-1.10955703"><ele>122.22473142</ele><time>2007-05-01T10:45:05Z</time></trkpt>
<trkpt lat="49.01622227" lon="-1.10945016"><ele>123.1861571832</ele><time>2007-05-01T10:45:13Z</time></trkpt>
<trkpt lat="49.01653323" lon="-1.10929593"><ele>124.1473388016</ele><time>2007-05-01T10:45:23Z</time></trkpt>
<trkpt lat="49.01685334" lon="-1.10909276"><ele>125.1087645648</ele><time>2007-05-01T10:45:33Z</time></trkpt>
<trkpt lat="49.01712935" lon="-1.10891749"><ele>125.1087645648</ele><time>2007-05-01T10:45:41Z</time></trkpt>
<trkpt lat="49.01744544" lon="-1.10872865"><ele>126.0699461832</ele><time>2007-05-01T10:45:50Z</time></trkpt>
<trkpt lat="49.01765968" lon="-1.10856595"><ele>126.0699461832</ele><time>2007-05-01T10:45:57Z</time></trkpt>
<trkpt lat="49.01784877" lon="-1.10847325"><ele>125.1087645648</ele><time>2007-05-01T10:46:03Z</time></trkpt>
<trkpt lat="49.01805170" lon="-1.10815608"><ele>123.6667481448</ele><time>2007-05-01T10:46:09Z</time></trkpt>
<trkpt lat="49.01812864" lon="-1.10801510"><ele>122.7054443016</ele><time>2007-05-01T10:46:11Z</time></trkpt>
<trkpt lat="49.01816779" lon="-1.10793924"><ele>122.22473142</ele><time>2007-05-01T10:46:12Z</time></trkpt>
<trkpt lat="49.01842603" lon="-1.10742685"><ele>118.379394432</ele><time>2007-05-01T10:46:18Z</time></trkpt>
<trkpt lat="49.01867548" lon="-1.10691229"><ele>115.0148925504</ele><time>2007-05-01T10:46:23Z</time></trkpt>
<trkpt lat="49.01891730" lon="-1.10649194"><ele>113.0922851688</ele><time>2007-05-01T10:46:27Z</time></trkpt>
<trkpt lat="49.01898360" lon="-1.10640317"><ele>113.0922851688</ele><time>2007-05-01T10:46:28Z</time></trkpt>
<trkpt lat="49.01910019" lon="-1.10626143"><ele>112.1309813256</ele><time>2007-05-01T10:46:30Z</time></trkpt>
<trkpt lat="49.01929239" lon="-1.10625808"><ele>112.6115722872</ele><time>2007-05-01T10:46:34Z</time></trkpt>
<trkpt lat="49.01957804" lon="-1.10661188"><ele>113.5729980504</ele><time>2007-05-01T10:46:41Z</time></trkpt>
<trkpt lat="49.01972925" lon="-1.10675655"><ele>113.0922851688</ele><time>2007-05-01T10:46:44Z</time></trkpt>
<trkpt lat="49.01996504" lon="-1.10685948"><ele>111.650268444</ele><time>2007-05-01T10:46:48Z</time></trkpt>
<trkpt lat="49.02015958" lon="-1.10690567"><ele>110.208252024</ele><time>2007-05-01T10:46:51Z</time></trkpt>
<trkpt lat="49.02043124" lon="-1.10687038"><ele>108.2856446424</ele><time>2007-05-01T10:46:55Z</time></trkpt>
<trkpt lat="49.02059745" lon="-1.10697683"><ele>107.8050536808</ele><time>2007-05-01T10:46:59Z</time></trkpt>
<trkpt lat="49.02076836" lon="-1.10735896"><ele>107.3243407992</ele><time>2007-05-01T10:47:05Z</time></trkpt>
<trkpt lat="49.02086374" lon="-1.10760623"><ele>107.3243407992</ele><time>2007-05-01T10:47:09Z</time></trkpt>
<trkpt lat="49.02098453" lon="-1.10771704"><ele>107.3243407992</ele><time>2007-05-01T10:47:13Z</time></trkpt>
<trkpt lat="49.02102937" lon="-1.10770245"><ele>107.8050536808</ele><time>2007-05-01T10:47:14Z</time></trkpt>
<trkpt lat="49.02137697" lon="-1.10751897"><ele>107.3243407992</ele><time>2007-05-01T10:47:21Z</time></trkpt>
<trkpt lat="49.02162130" lon="-1.10751294"><ele>106.8436279176</ele><time>2007-05-01T10:47:26Z</time></trkpt>
<trkpt lat="49.02166824" lon="-1.10753029"><ele>106.8436279176</ele><time>2007-05-01T10:47:27Z</time></trkpt>
<trkpt lat="49.02202682" lon="-1.10764973"><ele>108.7662352992</ele><time>2007-05-01T10:47:34Z</time></trkpt>
<trkpt lat="49.02207434" lon="-1.10766767"><ele>108.7662352992</ele><time>2007-05-01T10:47:35Z</time></trkpt>
<trkpt lat="49.02232488" lon="-1.10771553"><ele>110.6888426808</ele><time>2007-05-01T10:47:40Z</time></trkpt>
<trkpt lat="49.02260902" lon="-1.10779549"><ele>109.7276610624</ele><time>2007-05-01T10:47:45Z</time></trkpt>
<trkpt lat="49.02265462" lon="-1.10780622"><ele>109.7276610624</ele><time>2007-05-01T10:47:46Z</time></trkpt>
<trkpt lat="49.02303097" lon="-1.10793002"><ele>107.8050536808</ele><time>2007-05-01T10:47:53Z</time></trkpt>
<trkpt lat="49.02308788" lon="-1.10794318"><ele>107.8050536808</ele><time>2007-05-01T10:47:54Z</time></trkpt>
<trkpt lat="49.02330656" lon="-1.10809774"><ele>107.8050536808</ele><time>2007-05-01T10:47:58Z</time></trkpt>
<trkpt lat="49.02360144" lon="-1.10833109"><ele>102.9982909296</ele><time>2007-05-01T10:48:03Z</time></trkpt>
<trkpt lat="49.02374284" lon="-1.10847115"><ele>105.4017334176</ele><time>2007-05-01T10:48:05Z</time></trkpt>
<trkpt lat="49.02395214" lon="-1.10891297"><ele>105.8824462992</ele><time>2007-05-01T10:48:10Z</time></trkpt>
<trkpt lat="49.02403160" lon="-1.10905722"><ele>106.3630372608</ele><time>2007-05-01T10:48:12Z</time></trkpt>
<trkpt lat="49.02412447" lon="-1.10945393"><ele>106.8436279176</ele><time>2007-05-01T10:48:17Z</time></trkpt>
<trkpt lat="49.02413419" lon="-1.10952267"><ele>106.3630372608</ele><time>2007-05-01T10:48:18Z</time></trkpt>
<trkpt lat="49.02417066" lon="-1.10986557"><ele>106.8436279176</ele><time>2007-05-01T10:48:23Z</time></trkpt>
<trkpt lat="49.02427518" lon="-1.11002248"><ele>105.8824462992</ele><time>2007-05-01T10:48:27Z</time></trkpt>
<trkpt lat="49.02444432" lon="-1.10990589"><ele>104.4404295744</ele><time>2007-05-01T10:48:30Z</time></trkpt>
<trkpt lat="49.02463166" lon="-1.10978753"><ele>103.4790038112</ele><time>2007-05-01T10:48:33Z</time></trkpt>
<trkpt lat="49.02493056" lon="-1.10960548"><ele>105.8824462992</ele><time>2007-05-01T10:48:39Z</time></trkpt>
<trkpt lat="49.02513307" lon="-1.10947732"><ele>106.8436279176</ele><time>2007-05-01T10:48:45Z</time></trkpt>
<trkpt lat="49.02536617" lon="-1.10936995"><ele>108.2856446424</ele><time>2007-05-01T10:48:51Z</time></trkpt>
<trkpt lat="49.02575215" lon="-1.10917607"><ele>110.208252024</ele><time>2007-05-01T10:49:01Z</time></trkpt>
<trkpt lat="49.02620846" lon="-1.10893702"><ele>111.1695555624</ele><time>2007-05-01T10:49:12Z</time></trkpt>
<trkpt lat="49.02654659" lon="-1.10875254"><ele>111.650268444</ele><time>2007-05-01T10:49:20Z</time></trkpt>
<trkpt lat="49.02693979" lon="-1.10853452"><ele>111.1695555624</ele><time>2007-05-01T10:49:29Z</time></trkpt>
<trkpt lat="49.02725193" lon="-1.10845724"><ele>111.1695555624</ele><time>2007-05-01T10:49:35Z</time></trkpt>
<trkpt lat="49.02782575" lon="-1.10842195"><ele>113.0922851688</ele><time>2007-05-01T10:49:46Z</time></trkpt>
<trkpt lat="49.02818458" lon="-1.10839739"><ele>114.053589012</ele><time>2007-05-01T10:49:53Z</time></trkpt>
<trkpt lat="49.02856772" lon="-1.10815549"><ele>115.0148925504</ele><time>2007-05-01T10:50:01Z</time></trkpt>
<trkpt lat="49.02908170" lon="-1.10779675"><ele>116.4567870504</ele><time>2007-05-01T10:50:12Z</time></trkpt>
<trkpt lat="49.02941597" lon="-1.10758418"><ele>116.937499932</ele><time>2007-05-01T10:50:20Z</time></trkpt>
<trkpt lat="49.02981645" lon="-1.10734572"><ele>118.379394432</ele><time>2007-05-01T10:50:30Z</time></trkpt>
<trkpt lat="49.03015827" lon="-1.10717682"><ele>118.8601073136</ele><time>2007-05-01T10:50:38Z</time></trkpt>
<trkpt lat="49.03050804" lon="-1.10700943"><ele>116.4567870504</ele><time>2007-05-01T10:50:45Z</time></trkpt>
<trkpt lat="49.03056102" lon="-1.10697809"><ele>116.4567870504</ele><time>2007-05-01T10:50:46Z</time></trkpt>
<trkpt lat="49.03076353" lon="-1.10667215"><ele>115.495605432</ele><time>2007-05-01T10:50:51Z</time></trkpt>
<trkpt lat="49.03094516" lon="-1.10594552"><ele>116.4567870504</ele><time>2007-05-01T10:51:00Z</time></trkpt>
<trkpt lat="49.03108338" lon="-1.10528712"><ele>118.8601073136</ele><time>2007-05-01T10:51:08Z</time></trkpt>
<trkpt lat="49.03124708" lon="-1.10460123"><ele>120.3021240384</ele><time>2007-05-01T10:51:17Z</time></trkpt>
<trkpt lat="49.03138169" lon="-1.10407376"><ele>121.7441407632</ele><time>2007-05-01T10:51:25Z</time></trkpt>
<trkpt lat="49.03161865" lon="-1.10336792"><ele>121.7441407632</ele><time>2007-05-01T10:51:36Z</time></trkpt>
<trkpt lat="49.03189810" lon="-1.10264976"><ele>121.7441407632</ele><time>2007-05-01T10:51:48Z</time></trkpt>
<trkpt lat="49.03195845" lon="-1.10248975"><ele>121.7441407632</ele><time>2007-05-01T10:51:51Z</time></trkpt>
<trkpt lat="49.03202483" lon="-1.10227978"><ele>121.7441407632</ele><time>2007-05-01T10:51:57Z</time></trkpt>
<trkpt lat="49.03203665" lon="-1.10226293"><ele>121.7441407632</ele><time>2007-05-01T10:51:58Z</time></trkpt>
<trkpt lat="49.03206842" lon="-1.10213125"><ele>120.3021240384</ele><time>2007-05-01T10:52:04Z</time></trkpt>
<trkpt lat="49.03208770" lon="-1.10181048"><ele>118.8601073136</ele><time>2007-05-01T10:52:11Z</time></trkpt>
<trkpt lat="49.03209147" lon="-1.10175734"><ele>118.8601073136</ele><time>2007-05-01T10:52:12Z</time></trkpt>
<trkpt lat="49.03211377" lon="-1.10125308"><ele>118.379394432</ele><time>2007-05-01T10:52:20Z</time></trkpt>
<trkpt lat="49.03214704" lon="-1.10068319"><ele>117.8988037752</ele><time>2007-05-01T10:52:27Z</time></trkpt>
<trkpt lat="49.03216079" lon="-1.10027273"><ele>117.4182128136</ele><time>2007-05-01T10:52:32Z</time></trkpt>
<trkpt lat="49.03203749" lon="-1.09997945"><ele>116.4567870504</ele><time>2007-05-01T10:52:37Z</time></trkpt>
<trkpt lat="49.03189307" lon="-1.09970855"><ele>115.9761963936</ele><time>2007-05-01T10:52:42Z</time></trkpt>
<trkpt lat="49.03186876" lon="-1.09916397"><ele>117.8988037752</ele><time>2007-05-01T10:52:49Z</time></trkpt>
<trkpt lat="49.03186030" lon="-1.09886625"><ele>117.8988037752</ele><time>2007-05-01T10:52:53Z</time></trkpt>
<trkpt lat="49.03194328" lon="-1.09873323"><ele>115.0148925504</ele><time>2007-05-01T10:52:57Z</time></trkpt>
<trkpt lat="49.03225265" lon="-1.09872686"><ele>111.650268444</ele><time>2007-05-01T10:53:04Z</time></trkpt>
<trkpt lat="49.03245147" lon="-1.09871085"><ele>111.650268444</ele><time>2007-05-01T10:53:08Z</time></trkpt>
<trkpt lat="49.03266848" lon="-1.09868746"><ele>111.650268444</ele><time>2007-05-01T10:53:12Z</time></trkpt>
<trkpt lat="49.03294534" lon="-1.09865293"><ele>113.0922851688</ele><time>2007-05-01T10:53:17Z</time></trkpt>
<trkpt lat="49.03343836" lon="-1.09857230"><ele>115.9761963936</ele><time>2007-05-01T10:53:27Z</time></trkpt>
<trkpt lat="49.03393909" lon="-1.09848563"><ele>118.8601073136</ele><time>2007-05-01T10:53:38Z</time></trkpt>
<trkpt lat="49.03401847" lon="-1.09846635"><ele>119.3408201952</ele><time>2007-05-01T10:53:40Z</time></trkpt>
<trkpt lat="49.03409014" lon="-1.09831019"><ele>119.8214111568</ele><time>2007-05-01T10:53:44Z</time></trkpt>
<trkpt lat="49.03408159" lon="-1.09825747"><ele>119.8214111568</ele><time>2007-05-01T10:53:45Z</time></trkpt>
<trkpt lat="49.03393976" lon="-1.09763612"><ele>120.3021240384</ele><time>2007-05-01T10:53:55Z</time></trkpt>
<trkpt lat="49.03378193" lon="-1.09689265"><ele>120.78283692</ele><time>2007-05-01T10:54:05Z</time></trkpt>
<trkpt lat="49.03365134" lon="-1.09627239"><ele>121.7441407632</ele><time>2007-05-01T10:54:13Z</time></trkpt>
<trkpt lat="49.03345957" lon="-1.09538633"><ele>121.7441407632</ele><time>2007-05-01T10:54:24Z</time></trkpt>
<trkpt lat="49.03342042" lon="-1.09522146"><ele>121.7441407632</ele><time>2007-05-01T10:54:26Z</time></trkpt>
<trkpt lat="49.03324868" lon="-1.09463934"><ele>121.7441407632</ele><time>2007-05-01T10:54:33Z</time></trkpt>
<trkpt lat="49.03303142" lon="-1.09396107"><ele>121.7441407632</ele><time>2007-05-01T10:54:41Z</time></trkpt>
<trkpt lat="49.03293477" lon="-1.09363259"><ele>121.2635498016</ele><time>2007-05-01T10:54:45Z</time></trkpt>
<trkpt lat="49.03283528" lon="-1.09331408"><ele>120.78283692</ele><time>2007-05-01T10:54:49Z</time></trkpt>
<trkpt lat="49.03282690" lon="-1.09309548"><ele>120.3021240384</ele><time>2007-05-01T10:54:52Z</time></trkpt>
<trkpt lat="49.03296269" lon="-1.09304125"><ele>119.8214111568</ele><time>2007-05-01T10:54:55Z</time></trkpt>
<trkpt lat="49.03334767" lon="-1.09307913"><ele>118.379394432</ele><time>2007-05-01T10:55:02Z</time></trkpt>
<trkpt lat="49.03353014" lon="-1.09308114"><ele>118.379394432</ele><time>2007-05-01T10:55:05Z</time></trkpt>
<trkpt lat="49.03378252" lon="-1.09308709"><ele>118.8601073136</ele><time>2007-05-01T10:55:09Z</time></trkpt>
<trkpt lat="49.03428476" lon="-1.09307435"><ele>120.78283692</ele><time>2007-05-01T10:55:17Z</time></trkpt>
<trkpt lat="49.03476999" lon="-1.09307393"><ele>121.7441407632</ele><time>2007-05-01T10:55:25Z</time></trkpt>
<trkpt lat="49.03515154" lon="-1.09309346"><ele>121.2635498016</ele><time>2007-05-01T10:55:32Z</time></trkpt>
<trkpt lat="49.03527450" lon="-1.09324065"><ele>121.2635498016</ele><time>2007-05-01T10:55:36Z</time></trkpt>
<trkpt lat="49.03527777" lon="-1.09331416"><ele>121.2635498016</ele><time>2007-05-01T10:55:37Z</time></trkpt>
<trkpt lat="49.03526369" lon="-1.09411740"><ele>122.7054443016</ele><time>2007-05-01T10:55:47Z</time></trkpt>
<trkpt lat="49.03536175" lon="-1.09452652"><ele>122.7054443016</ele><time>2007-05-01T10:55:52Z</time></trkpt>
<trkpt lat="49.03571664" lon="-1.09517553"><ele>122.7054443016</ele><time>2007-05-01T10:56:01Z</time></trkpt>
<trkpt lat="49.03595620" lon="-1.09570107"><ele>123.1861571832</ele><time>2007-05-01T10:56:08Z</time></trkpt>
<trkpt lat="49.03623674" lon="-1.09635369"><ele>124.6280516832</ele><time>2007-05-01T10:56:17Z</time></trkpt>
<trkpt lat="49.03642022" lon="-1.09680497"><ele>125.1087645648</ele><time>2007-05-01T10:56:23Z</time></trkpt>
<trkpt lat="49.03646607" lon="-1.09719129"><ele>124.6280516832</ele><time>2007-05-01T10:56:28Z</time></trkpt>
<trkpt lat="49.03645886" lon="-1.09725835"><ele>124.6280516832</ele><time>2007-05-01T10:56:29Z</time></trkpt>
<trkpt lat="49.03644336" lon="-1.09737259"><ele>124.6280516832</ele><time>2007-05-01T10:56:31Z</time></trkpt>
<trkpt lat="49.03646858" lon="-1.09748684"><ele>123.6667481448</ele><time>2007-05-01T10:56:36Z</time></trkpt>
<trkpt lat="49.03648929" lon="-1.09748684"><ele>123.6667481448</ele><time>2007-05-01T10:56:37Z</time></trkpt>
<trkpt lat="49.03664419" lon="-1.09747183"><ele>120.3021240384</ele><time>2007-05-01T10:56:44Z</time></trkpt>
<trkpt lat="49.03674519" lon="-1.09748734"><ele>117.8988037752</ele><time>2007-05-01T10:56:48Z</time></trkpt>
<trkpt lat="49.03690243" lon="-1.09753512"><ele>113.5729980504</ele><time>2007-05-01T10:56:54Z</time></trkpt>
<trkpt lat="49.03707283" lon="-1.09755876"><ele>110.6888426808</ele><time>2007-05-01T10:56:59Z</time></trkpt>
<trkpt lat="49.03723712" lon="-1.09756462"><ele>105.8824462992</ele><time>2007-05-01T10:57:06Z</time></trkpt>
<trkpt lat="49.03737735" lon="-1.09748667"><ele>103.9597166928</ele><time>2007-05-01T10:57:10Z</time></trkpt>
<trkpt lat="49.03750660" lon="-1.09734787"><ele>101.5563964296</ele><time>2007-05-01T10:57:15Z</time></trkpt>
<trkpt lat="49.03764180" lon="-1.09721325"><ele>101.075683548</ele><time>2007-05-01T10:57:20Z</time></trkpt>
<trkpt lat="49.03783089" lon="-1.09702986"><ele>99.1530761664</ele><time>2007-05-01T10:57:25Z</time></trkpt>
<trkpt lat="49.03793257" lon="-1.09698644"><ele>98.6724852048</ele><time>2007-05-01T10:57:27Z</time></trkpt>
<trkpt lat="49.03815477" lon="-1.09702852"><ele>98.191894548</ele><time>2007-05-01T10:57:31Z</time></trkpt>
<trkpt lat="49.03850597" lon="-1.09699206"><ele>94.8271485216</ele><time>2007-05-01T10:57:36Z</time></trkpt>
<trkpt lat="49.03871175" lon="-1.09692852"><ele>90.9819334536</ele><time>2007-05-01T10:57:39Z</time></trkpt>
<trkpt lat="49.03882390" lon="-1.09688812"><ele>90.5013427968</ele><time>2007-05-01T10:57:41Z</time></trkpt>
<trkpt lat="49.03903370" lon="-1.09686256"><ele>86.6560058088</ele><time>2007-05-01T10:57:46Z</time></trkpt>
<trkpt lat="49.03912213" lon="-1.09667773"><ele>84.2526855456</ele><time>2007-05-01T10:57:50Z</time></trkpt>
<trkpt lat="49.03917845" lon="-1.09652803"><ele>82.330078164</ele><time>2007-05-01T10:57:53Z</time></trkpt>
<trkpt lat="49.03921039" lon="-1.09647187"><ele>80.888183664</ele><time>2007-05-01T10:57:55Z</time></trkpt>
<trkpt lat="49.03923528" lon="-1.09644933"><ele>79.926635676</ele><time>2007-05-01T10:57:57Z</time></trkpt>
<trkpt lat="49.03927803" lon="-1.09644799"><ele>78.9654540576</ele><time>2007-05-01T10:58:00Z</time></trkpt>
<trkpt lat="49.03930100" lon="-1.09645545"><ele>78.484741176</ele><time>2007-05-01T10:58:02Z</time></trkpt>
<trkpt lat="49.03938892" lon="-1.09648755"><ele>78.484741176</ele><time>2007-05-01T10:58:08Z</time></trkpt>
<trkpt lat="49.03940703" lon="-1.09650792"><ele>79.4460450192</ele><time>2007-05-01T10:58:11Z</time></trkpt>
<trkpt lat="49.03943184" lon="-1.09657514"><ele>79.926635676</ele><time>2007-05-01T10:58:17Z</time></trkpt>
<trkpt lat="49.03960794" lon="-1.09659274"><ele>83.771972664</ele><time>2007-05-01T10:58:38Z</time></trkpt>
<trkpt lat="49.03961674" lon="-1.09659098"><ele>84.2526855456</ele><time>2007-05-01T10:58:39Z</time></trkpt>
<trkpt lat="49.03967516" lon="-1.09657019"><ele>86.1752929272</ele><time>2007-05-01T10:58:47Z</time></trkpt>
<trkpt lat="49.03974465" lon="-1.09655938"><ele>86.6560058088</ele><time>2007-05-01T10:58:51Z</time></trkpt>
<trkpt lat="49.03980358" lon="-1.09656366"><ele>89.5399170336</ele><time>2007-05-01T10:58:54Z</time></trkpt>
<trkpt lat="49.03990634" lon="-1.09668226"><ele>90.5013427968</ele><time>2007-05-01T10:59:00Z</time></trkpt>
<trkpt lat="49.03999024" lon="-1.09683808"><ele>93.3851317968</ele><time>2007-05-01T10:59:06Z</time></trkpt>
<trkpt lat="49.04008647" lon="-1.09704159"><ele>96.2692871664</ele><time>2007-05-01T10:59:14Z</time></trkpt>
<trkpt lat="49.04009518" lon="-1.09710337"><ele>97.7111816664</ele><time>2007-05-01T10:59:21Z</time></trkpt>
<trkpt lat="49.04009669" lon="-1.09713782"><ele>98.191894548</ele><time>2007-05-01T10:59:23Z</time></trkpt>
<trkpt lat="49.04020239" lon="-1.09721988"><ele>100.5950928912</ele><time>2007-05-01T10:59:37Z</time></trkpt>
<trkpt lat="49.04022644" lon="-1.09721594"><ele>100.5950928912</ele><time>2007-05-01T10:59:39Z</time></trkpt>
<trkpt lat="49.04033147" lon="-1.09714033"><ele>97.7111816664</ele><time>2007-05-01T10:59:53Z</time></trkpt>
<trkpt lat="49.04038495" lon="-1.09710127"><ele>99.633789048</ele><time>2007-05-01T10:59:58Z</time></trkpt>
<trkpt lat="49.04043968" lon="-1.09705224"><ele>102.0371093112</ele><time>2007-05-01T11:00:03Z</time></trkpt>
<trkpt lat="49.04054646" lon="-1.09699055"><ele>106.3630372608</ele><time>2007-05-01T11:00:10Z</time></trkpt>
<trkpt lat="49.04057019" lon="-1.09697889"><ele>106.8436279176</ele><time>2007-05-01T11:00:12Z</time></trkpt>
<trkpt lat="49.04063246" lon="-1.09693078"><ele>107.8050536808</ele><time>2007-05-01T11:00:17Z</time></trkpt>
<trkpt lat="49.04076297" lon="-1.09682542"><ele>107.8050536808</ele><time>2007-05-01T11:00:25Z</time></trkpt>
<trkpt lat="49.04090093" lon="-1.09676063"><ele>111.1695555624</ele><time>2007-05-01T11:00:31Z</time></trkpt>
<trkpt lat="49.04102398" lon="-1.09667924"><ele>111.650268444</ele><time>2007-05-01T11:00:38Z</time></trkpt>
<trkpt lat="49.04111166" lon="-1.09660758"><ele>110.208252024</ele><time>2007-05-01T11:00:43Z</time></trkpt>
<trkpt lat="49.04121593" lon="-1.09653004"><ele>108.7662352992</ele><time>2007-05-01T11:00:48Z</time></trkpt>
<trkpt lat="49.04133948" lon="-1.09642829"><ele>108.2856446424</ele><time>2007-05-01T11:00:54Z</time></trkpt>
<trkpt lat="49.04148943" lon="-1.09633139"><ele>105.8824462992</ele><time>2007-05-01T11:01:00Z</time></trkpt>
<trkpt lat="49.04151684" lon="-1.09631823"><ele>105.8824462992</ele><time>2007-05-01T11:01:01Z</time></trkpt>
<trkpt lat="49.04164189" lon="-1.09642577"><ele>108.7662352992</ele><time>2007-05-01T11:01:06Z</time></trkpt>
<trkpt lat="49.04180375" lon="-1.09678016"><ele>111.650268444</ele><time>2007-05-01T11:01:16Z</time></trkpt>
<trkpt lat="49.04192965" lon="-1.09704285"><ele>111.650268444</ele><time>2007-05-01T11:01:23Z</time></trkpt>
<trkpt lat="49.04208706" lon="-1.09726237"><ele>111.1695555624</ele><time>2007-05-01T11:01:29Z</time></trkpt>
<trkpt lat="49.04223458" lon="-1.09711477"><ele>110.208252024</ele><time>2007-05-01T11:01:33Z</time></trkpt>
<trkpt lat="49.04257287" lon="-1.09654907"><ele>109.2469481808</ele><time>2007-05-01T11:01:43Z</time></trkpt>
<trkpt lat="49.04279189" lon="-1.09622972"><ele>108.7662352992</ele><time>2007-05-01T11:01:49Z</time></trkpt>
<trkpt lat="49.04289189" lon="-1.09624556"><ele>108.7662352992</ele><time>2007-05-01T11:01:52Z</time></trkpt>
<trkpt lat="49.04285015" lon="-1.09637314"><ele>109.2469481808</ele><time>2007-05-01T11:01:55Z</time></trkpt>
<trkpt lat="49.04271897" lon="-1.09661336"><ele>110.208252024</ele><time>2007-05-01T11:02:01Z</time></trkpt>
<trkpt lat="49.04275853" lon="-1.09679994"><ele>111.1695555624</ele><time>2007-05-01T11:02:05Z</time></trkpt>
<trkpt lat="49.04278234" lon="-1.09683682"><ele>111.1695555624</ele><time>2007-05-01T11:02:06Z</time></trkpt>
<trkpt lat="49.04298543" lon="-1.09707026"><ele>112.6115722872</ele><time>2007-05-01T11:02:14Z</time></trkpt>
</trkseg></trk></gpx>